AFR648 LFPO-FMEE
Flight info
| Callsign | AFR648 |
|---|---|
| Flight time | 10h 26m |
| Altitude | 31000 |
| Route | PILUL DCT PIMUP DCT PIXIS DCT PIBAT DCT LUSAR DCT LURAG DCT RUTOM/N0485F330 DCT SALUN N705 MMA L613 KIVIL N710 TAKRI P751 LXR M999 MUVOL/N0493F350 M999 JDW G650 RASKA/N0495F340 G650 ULONI/N0494F350 UV790 SB UR775 MOGDU UN304 APKAK/N0490F360 UN304 DENLI/N0488F370 UN304 UVENA UVENA2R |
| Aircraft | B77W/H-SDE1E2E3FGHIJ2J3J4J5M1RWXY/LB1D1 |
Departure
| Time | 2026-04-17 22:10 |
|---|---|
| Airport | Paris-Orly Airport (LFPO) |
Arrival
| Time | 2026-04-18 08:37 |
|---|---|
| Airport | Roland Garros Airport (FMEE) |
| Time | Latitude | Longitude | Altitude | Speed | Heading |
|---|---|---|---|---|---|
| 2026-04-17 21:37 | 48.72661 | 2.35766 | 302 ft | 0 kts | 65° |
| 2026-04-17 22:00 | 48.72658 | 2.35758 | 298 ft | 4 kts | 65° |
| 2026-04-17 22:00 | 48.72647 | 2.35721 | 301 ft | 4 kts | 65° |
| 2026-04-17 22:01 | 48.72635 | 2.35686 | 300 ft | 4 kts | 46° |
| 2026-04-17 22:01 | 48.72614 | 2.35667 | 299 ft | 4 kts | 4° |
| 2026-04-17 22:01 | 48.72590 | 2.35670 | 299 ft | 2 kts | 344° |
| 2026-04-17 22:01 | 48.72566 | 2.35680 | 300 ft | 4 kts | 344° |
| 2026-04-17 22:02 | 48.72547 | 2.35689 | 300 ft | 0 kts | 344° |
| 2026-04-17 22:04 | 48.72561 | 2.35681 | 299 ft | 6 kts | 340° |
| 2026-04-17 22:05 | 48.72598 | 2.35592 | 301 ft | 14 kts | 291° |
| 2026-04-17 22:05 | 48.72695 | 2.35503 | 302 ft | 20 kts | 341° |
| 2026-04-17 22:05 | 48.72841 | 2.35437 | 299 ft | 18 kts | 347° |
| 2026-04-17 22:05 | 48.72906 | 2.35481 | 301 ft | 11 kts | 57° |
| 2026-04-17 22:06 | 48.72968 | 2.35537 | 301 ft | 12 kts | 11° |
| 2026-04-17 22:06 | 48.73046 | 2.35597 | 301 ft | 13 kts | 18° |
| 2026-04-17 22:06 | 48.73147 | 2.35604 | 300 ft | 15 kts | 17° |
| 2026-04-17 22:06 | 48.73218 | 2.35715 | 301 ft | 16 kts | 58° |
| 2026-04-17 22:07 | 48.73272 | 2.35862 | 303 ft | 16 kts | 62° |
| 2026-04-17 22:07 | 48.73326 | 2.36010 | 302 ft | 16 kts | 58° |
| 2026-04-17 22:07 | 48.73415 | 2.36096 | 302 ft | 7 kts | 9° |
| 2026-04-17 22:07 | 48.73419 | 2.36097 | 302 ft | 0 kts | 7° |
| 2026-04-17 22:08 | 48.73439 | 2.36095 | 300 ft | 7 kts | 354° |
| 2026-04-17 22:09 | 48.73500 | 2.36036 | 298 ft | 13 kts | 294° |
| 2026-04-17 22:09 | 48.73497 | 2.35949 | 300 ft | 1 kts | 249° |
| 2026-04-17 22:09 | 48.73474 | 2.35872 | 299 ft | 18 kts | 243° |
| 2026-04-17 22:09 | 48.73378 | 2.35595 | 302 ft | 61 kts | 242° |
| 2026-04-17 22:10 | 48.73024 | 2.34597 | 302 ft | 153 kts | 242° |
| 2026-04-17 22:10 | 48.72390 | 2.32816 | 397 ft | 223 kts | 242° |
| 2026-04-17 22:10 | 48.71615 | 2.30706 | 1433 ft | 234 kts | 238° |
| 2026-04-17 22:10 | 48.70692 | 2.28697 | 2794 ft | 238 kts | 234° |
| 2026-04-17 22:11 | 48.69755 | 2.26557 | 3531 ft | 249 kts | 237° |
| 2026-04-17 22:11 | 48.68819 | 2.24314 | 4195 ft | 255 kts | 238° |
| 2026-04-17 22:11 | 48.67863 | 2.22052 | 4967 ft | 255 kts | 233° |
| 2026-04-17 22:11 | 48.66489 | 2.20357 | 5562 ft | 262 kts | 202° |
| 2026-04-17 22:12 | 48.64668 | 2.19992 | 6255 ft | 271 kts | 173° |
| 2026-04-17 22:12 | 48.62878 | 2.20930 | 6929 ft | 279 kts | 150° |
| 2026-04-17 22:12 | 48.61293 | 2.22667 | 7518 ft | 285 kts | 144° |
| 2026-04-17 22:12 | 48.59722 | 2.24542 | 8199 ft | 289 kts | 143° |
| 2026-04-17 22:13 | 48.58144 | 2.26439 | 8915 ft | 291 kts | 143° |
| 2026-04-17 22:13 | 48.56568 | 2.28323 | 9607 ft | 295 kts | 144° |
| 2026-04-17 22:13 | 48.54943 | 2.30249 | 10176 ft | 299 kts | 144° |
| 2026-04-17 22:13 | 48.53292 | 2.32188 | 10196 ft | 302 kts | 144° |
| 2026-04-17 22:14 | 48.51637 | 2.34123 | 10205 ft | 300 kts | 144° |
| 2026-04-17 22:14 | 48.49990 | 2.36045 | 10196 ft | 299 kts | 144° |
| 2026-04-17 22:14 | 48.48505 | 2.38224 | 10299 ft | 298 kts | 130° |
| 2026-04-17 22:14 | 48.47260 | 2.40777 | 10702 ft | 311 kts | 126° |
| 2026-04-17 22:15 | 48.45991 | 2.43565 | 10870 ft | 334 kts | 126° |
| 2026-04-17 22:15 | 48.44636 | 2.46554 | 11050 ft | 357 kts | 126° |
| 2026-04-17 22:15 | 48.43203 | 2.49679 | 11236 ft | 378 kts | 126° |
| 2026-04-17 22:15 | 48.41671 | 2.52974 | 11724 ft | 390 kts | 127° |
| 2026-04-17 22:16 | 48.40091 | 2.56336 | 12323 ft | 398 kts | 127° |
| 2026-04-17 22:16 | 48.38474 | 2.59754 | 13050 ft | 403 kts | 127° |
| 2026-04-17 22:16 | 48.36838 | 2.63197 | 13854 ft | 406 kts | 127° |
| 2026-04-17 22:16 | 48.35187 | 2.66659 | 14547 ft | 410 kts | 127° |
| 2026-04-17 22:17 | 48.33512 | 2.70167 | 15220 ft | 415 kts | 128° |
| 2026-04-17 22:17 | 48.31820 | 2.73708 | 15902 ft | 419 kts | 128° |
| 2026-04-17 22:17 | 48.30133 | 2.77234 | 16581 ft | 423 kts | 128° |
| 2026-04-17 22:17 | 48.28405 | 2.80837 | 17255 ft | 427 kts | 128° |
| 2026-04-17 22:18 | 48.26493 | 2.84216 | 17833 ft | 426 kts | 141° |
| 2026-04-17 22:18 | 48.24139 | 2.86957 | 18400 ft | 429 kts | 147° |
| 2026-04-17 22:18 | 48.21696 | 2.89571 | 19009 ft | 433 kts | 147° |
| 2026-04-17 22:18 | 48.19264 | 2.92234 | 19639 ft | 435 kts | 146° |
| 2026-04-17 22:19 | 48.16836 | 2.94969 | 20249 ft | 438 kts | 146° |
| 2026-04-17 22:19 | 48.14408 | 2.97756 | 20817 ft | 441 kts | 145° |
| 2026-04-17 22:19 | 48.11964 | 3.00577 | 21346 ft | 446 kts | 145° |
| 2026-04-17 22:19 | 48.09522 | 3.03390 | 21860 ft | 451 kts | 145° |
| 2026-04-17 22:20 | 48.06934 | 3.06009 | 22406 ft | 449 kts | 155° |
| 2026-04-17 22:20 | 48.04082 | 3.07921 | 22928 ft | 449 kts | 161° |
| 2026-04-17 22:20 | 48.01163 | 3.09633 | 23470 ft | 452 kts | 162° |
| 2026-04-17 22:20 | 47.98221 | 3.11342 | 23976 ft | 456 kts | 161° |
| 2026-04-17 22:21 | 47.95266 | 3.13096 | 24389 ft | 459 kts | 161° |
| 2026-04-17 22:21 | 47.92298 | 3.14902 | 24810 ft | 463 kts | 160° |
| 2026-04-17 22:21 | 47.89315 | 3.16752 | 25252 ft | 465 kts | 160° |
| 2026-04-17 22:21 | 47.86322 | 3.18627 | 25699 ft | 468 kts | 160° |
| 2026-04-17 22:22 | 47.83315 | 3.20518 | 26124 ft | 470 kts | 160° |
| 2026-04-17 22:22 | 47.80332 | 3.22392 | 26530 ft | 473 kts | 160° |
| 2026-04-17 22:22 | 47.77288 | 3.24301 | 26937 ft | 476 kts | 160° |
| 2026-04-17 22:22 | 47.74224 | 3.26219 | 27301 ft | 479 kts | 160° |
| 2026-04-17 22:23 | 47.71143 | 3.28142 | 27656 ft | 483 kts | 160° |
| 2026-04-17 22:23 | 47.68031 | 3.30081 | 28026 ft | 485 kts | 160° |
| 2026-04-17 22:23 | 47.64904 | 3.32028 | 28404 ft | 487 kts | 160° |
| 2026-04-17 22:23 | 47.61774 | 3.33974 | 28772 ft | 489 kts | 160° |
| 2026-04-17 22:24 | 47.58624 | 3.35931 | 29120 ft | 491 kts | 160° |
| 2026-04-17 22:24 | 47.55460 | 3.37893 | 29447 ft | 493 kts | 160° |
| 2026-04-17 22:24 | 47.52334 | 3.39828 | 29700 ft | 496 kts | 160° |
| 2026-04-17 22:24 | 47.49140 | 3.41797 | 30000 ft | 498 kts | 160° |
| 2026-04-17 22:25 | 47.45943 | 3.43764 | 30384 ft | 497 kts | 160° |
| 2026-04-17 22:25 | 47.42754 | 3.45724 | 30781 ft | 495 kts | 160° |
| 2026-04-17 22:25 | 47.39577 | 3.47675 | 31130 ft | 495 kts | 160° |
| 2026-04-17 22:26 | 47.33179 | 3.51595 | 31194 ft | 497 kts | 160° |
| 2026-04-17 22:26 | 47.26795 | 3.55501 | 31202 ft | 495 kts | 160° |
| 2026-04-17 22:27 | 47.20437 | 3.59380 | 31208 ft | 494 kts | 160° |
| 2026-04-17 22:27 | 47.14083 | 3.63245 | 31212 ft | 494 kts | 160° |
| 2026-04-17 22:28 | 47.07736 | 3.67096 | 31205 ft | 494 kts | 160° |
| 2026-04-17 22:28 | 47.01418 | 3.70922 | 31209 ft | 495 kts | 160° |
| 2026-04-17 22:29 | 46.95381 | 3.75680 | 31192 ft | 499 kts | 139° |
| 2026-04-17 22:29 | 46.93079 | 3.79523 | 31203 ft | 504 kts | 125° |
| 2026-04-17 22:29 | 46.91928 | 3.82478 | 31201 ft | 506 kts | 115° |
| 2026-04-17 22:30 | 46.89486 | 3.92135 | 31190 ft | 508 kts | 110° |
| 2026-04-17 22:30 | 46.87015 | 4.01852 | 31210 ft | 511 kts | 111° |
| 2026-04-17 22:31 | 46.84438 | 4.11555 | 31205 ft | 512 kts | 111° |
| 2026-04-17 22:31 | 46.81847 | 4.21239 | 31200 ft | 511 kts | 111° |
| 2026-04-17 22:32 | 46.79727 | 4.31108 | 31191 ft | 509 kts | 102° |
| 2026-04-17 22:32 | 46.78334 | 4.41134 | 31194 ft | 507 kts | 101° |
| 2026-04-17 22:33 | 46.76908 | 4.51185 | 31205 ft | 505 kts | 102° |
| 2026-04-17 22:33 | 46.75439 | 4.61202 | 31198 ft | 504 kts | 102° |
| 2026-04-17 22:34 | 46.73956 | 4.71178 | 31198 ft | 503 kts | 102° |
| 2026-04-17 22:34 | 46.72466 | 4.81142 | 31189 ft | 503 kts | 102° |
| 2026-04-17 22:35 | 46.70970 | 4.91104 | 31186 ft | 503 kts | 102° |
| 2026-04-17 22:35 | 46.69469 | 5.01048 | 31182 ft | 502 kts | 102° |
| 2026-04-17 22:36 | 46.67937 | 5.10986 | 31176 ft | 502 kts | 105° |
| 2026-04-17 22:36 | 46.65215 | 5.20276 | 31181 ft | 500 kts | 121° |
| 2026-04-17 22:37 | 46.61048 | 5.28278 | 31194 ft | 499 kts | 131° |
| 2026-04-17 22:37 | 46.56506 | 5.35920 | 31180 ft | 499 kts | 131° |
| 2026-04-17 22:38 | 46.51988 | 5.43587 | 31182 ft | 499 kts | 131° |
| 2026-04-17 22:38 | 46.47493 | 5.51279 | 31185 ft | 499 kts | 130° |
| 2026-04-17 22:39 | 46.43005 | 5.58963 | 31175 ft | 499 kts | 130° |
| 2026-04-17 22:39 | 46.36250 | 5.70484 | 31192 ft | 500 kts | 130° |
| 2026-04-17 22:40 | 46.31731 | 5.78160 | 31187 ft | 501 kts | 130° |
| 2026-04-17 22:40 | 46.27198 | 5.85838 | 31185 ft | 502 kts | 130° |
| 2026-04-17 22:41 | 46.22682 | 5.93466 | 31188 ft | 502 kts | 130° |
| 2026-04-17 22:41 | 46.18135 | 6.01125 | 31186 ft | 502 kts | 130° |
| 2026-04-17 22:42 | 46.13573 | 6.08787 | 31185 ft | 503 kts | 130° |
| 2026-04-17 22:42 | 46.09013 | 6.16425 | 31184 ft | 503 kts | 130° |
| 2026-04-17 22:43 | 46.04437 | 6.24069 | 31204 ft | 503 kts | 130° |
| 2026-04-17 22:43 | 45.99888 | 6.31646 | 31209 ft | 503 kts | 130° |
| 2026-04-17 22:44 | 45.95304 | 6.39263 | 31202 ft | 504 kts | 130° |
| 2026-04-17 22:44 | 45.90703 | 6.46884 | 31194 ft | 505 kts | 130° |
| 2026-04-17 22:45 | 45.86089 | 6.54505 | 31205 ft | 505 kts | 130° |
| 2026-04-17 22:45 | 45.81469 | 6.62119 | 31203 ft | 506 kts | 130° |
| 2026-04-17 22:46 | 45.76837 | 6.69730 | 31195 ft | 506 kts | 130° |
| 2026-04-17 22:46 | 45.72202 | 6.77326 | 31196 ft | 506 kts | 130° |
| 2026-04-17 22:47 | 45.67568 | 6.84898 | 31199 ft | 506 kts | 131° |
| 2026-04-17 22:47 | 45.62927 | 6.92462 | 31199 ft | 505 kts | 131° |
| 2026-04-17 22:48 | 45.58316 | 6.99958 | 31207 ft | 505 kts | 131° |
| 2026-04-17 22:48 | 45.53675 | 7.07491 | 31195 ft | 506 kts | 130° |
| 2026-04-17 22:49 | 45.49504 | 7.15561 | 31193 ft | 505 kts | 123° |
| 2026-04-17 22:49 | 45.45581 | 7.23869 | 31185 ft | 506 kts | 123° |
| 2026-04-17 22:50 | 45.41635 | 7.32163 | 31194 ft | 506 kts | 124° |
| 2026-04-17 22:50 | 45.37662 | 7.40431 | 31191 ft | 506 kts | 124° |
| 2026-04-17 22:51 | 45.33675 | 7.48677 | 31195 ft | 506 kts | 124° |
| 2026-04-17 22:51 | 45.29702 | 7.56868 | 31136 ft | 507 kts | 124° |
| 2026-04-17 22:52 | 45.25683 | 7.65132 | 31133 ft | 508 kts | 124° |
| 2026-04-17 22:52 | 45.21662 | 7.73380 | 31126 ft | 509 kts | 123° |
| 2026-04-17 22:53 | 45.17630 | 7.81626 | 31133 ft | 509 kts | 123° |
| 2026-04-17 22:53 | 45.13586 | 7.89872 | 31138 ft | 509 kts | 123° |
| 2026-04-17 22:54 | 45.09535 | 7.98109 | 31133 ft | 509 kts | 123° |
| 2026-04-17 22:54 | 45.05488 | 8.06317 | 31133 ft | 508 kts | 123° |
| 2026-04-17 22:55 | 45.01465 | 8.14451 | 31137 ft | 507 kts | 123° |
| 2026-04-17 22:55 | 44.97422 | 8.22602 | 31133 ft | 506 kts | 123° |
| 2026-04-17 22:56 | 44.93371 | 8.30744 | 31129 ft | 506 kts | 123° |
| 2026-04-17 22:56 | 44.89325 | 8.38856 | 31132 ft | 505 kts | 123° |
| 2026-04-17 22:57 | 44.85276 | 8.46948 | 31133 ft | 504 kts | 123° |
| 2026-04-17 22:57 | 44.81227 | 8.55020 | 31126 ft | 504 kts | 123° |
| 2026-04-17 22:58 | 44.77207 | 8.63010 | 31131 ft | 503 kts | 123° |
| 2026-04-17 22:58 | 44.73156 | 8.71041 | 31125 ft | 502 kts | 123° |
| 2026-04-17 22:59 | 44.69102 | 8.79055 | 31126 ft | 502 kts | 123° |
| 2026-04-17 22:59 | 44.65048 | 8.87050 | 31130 ft | 502 kts | 124° |
| 2026-04-17 23:00 | 44.60972 | 8.95065 | 31110 ft | 505 kts | 125° |
| 2026-04-17 23:00 | 44.56876 | 9.03093 | 31121 ft | 507 kts | 125° |
| 2026-04-17 23:01 | 44.52758 | 9.11140 | 31128 ft | 509 kts | 125° |
| 2026-04-17 23:01 | 44.48621 | 9.19206 | 31118 ft | 509 kts | 125° |
| 2026-04-17 23:02 | 44.44510 | 9.27196 | 31119 ft | 508 kts | 125° |
| 2026-04-17 23:02 | 44.40378 | 9.35207 | 31132 ft | 507 kts | 125° |
| 2026-04-17 23:03 | 44.36244 | 9.43199 | 31134 ft | 507 kts | 125° |
| 2026-04-17 23:03 | 44.32105 | 9.51179 | 31138 ft | 507 kts | 125° |
| 2026-04-17 23:04 | 44.27965 | 9.59140 | 31124 ft | 507 kts | 126° |
| 2026-04-17 23:04 | 44.23819 | 9.67090 | 31116 ft | 507 kts | 126° |
| 2026-04-17 23:05 | 44.19666 | 9.75033 | 31105 ft | 507 kts | 126° |
| 2026-04-17 23:05 | 44.15503 | 9.82970 | 31110 ft | 507 kts | 126° |
| 2026-04-17 23:06 | 44.11337 | 9.90895 | 31108 ft | 508 kts | 126° |
| 2026-04-17 23:06 | 44.07150 | 9.98835 | 31104 ft | 509 kts | 126° |
| 2026-04-17 23:07 | 44.02979 | 10.06724 | 31104 ft | 509 kts | 126° |
| 2026-04-17 23:07 | 43.98771 | 10.14661 | 31113 ft | 510 kts | 126° |
| 2026-04-17 23:08 | 43.94564 | 10.22576 | 31127 ft | 510 kts | 126° |
| 2026-04-17 23:08 | 43.90352 | 10.30479 | 31135 ft | 510 kts | 126° |
| 2026-04-17 23:09 | 43.86129 | 10.38379 | 31120 ft | 509 kts | 126° |
| 2026-04-17 23:09 | 43.81908 | 10.46256 | 31116 ft | 509 kts | 126° |
| 2026-04-17 23:10 | 43.77678 | 10.54128 | 31115 ft | 509 kts | 126° |
| 2026-04-17 23:10 | 43.73446 | 10.61982 | 31108 ft | 509 kts | 126° |
| 2026-04-17 23:11 | 43.69212 | 10.69819 | 31099 ft | 509 kts | 126° |
| 2026-04-17 23:11 | 43.64970 | 10.77649 | 31107 ft | 508 kts | 126° |
| 2026-04-17 23:12 | 43.60725 | 10.85465 | 31111 ft | 508 kts | 126° |
| 2026-04-17 23:12 | 43.56496 | 10.93231 | 31107 ft | 509 kts | 126° |
| 2026-04-17 23:13 | 43.52238 | 11.01029 | 31108 ft | 509 kts | 126° |
| 2026-04-17 23:13 | 43.47974 | 11.08817 | 31108 ft | 509 kts | 126° |
| 2026-04-17 23:14 | 43.43708 | 11.16589 | 31113 ft | 509 kts | 126° |
| 2026-04-17 23:14 | 43.39423 | 11.24375 | 31110 ft | 510 kts | 126° |
| 2026-04-17 23:15 | 43.35135 | 11.32144 | 31127 ft | 510 kts | 126° |
| 2026-04-17 23:15 | 43.30843 | 11.39901 | 31107 ft | 510 kts | 126° |
| 2026-04-17 23:16 | 43.26546 | 11.47646 | 31120 ft | 509 kts | 126° |
| 2026-04-17 23:16 | 43.22283 | 11.55312 | 31109 ft | 509 kts | 126° |
| 2026-04-17 23:17 | 43.17973 | 11.63038 | 31115 ft | 509 kts | 126° |
| 2026-04-17 23:17 | 43.13676 | 11.70725 | 31131 ft | 509 kts | 126° |
| 2026-04-17 23:18 | 43.09368 | 11.78409 | 31114 ft | 508 kts | 126° |
| 2026-04-17 23:18 | 43.05784 | 11.84787 | 31115 ft | 508 kts | 126° |
| 2026-04-17 23:19 | 43.01476 | 11.92436 | 31113 ft | 508 kts | 126° |
| 2026-04-17 23:19 | 42.97165 | 12.00070 | 31113 ft | 507 kts | 126° |
| 2026-04-17 23:20 | 42.92843 | 12.07703 | 31102 ft | 507 kts | 126° |
| 2026-04-17 23:20 | 42.88518 | 12.15323 | 31101 ft | 507 kts | 126° |
| 2026-04-17 23:21 | 42.84218 | 12.22879 | 31098 ft | 507 kts | 126° |
| 2026-04-17 23:21 | 42.79887 | 12.30470 | 31094 ft | 507 kts | 126° |
| 2026-04-17 23:22 | 42.75553 | 12.38047 | 31090 ft | 507 kts | 126° |
| 2026-04-17 23:22 | 42.71205 | 12.45629 | 31102 ft | 508 kts | 126° |
| 2026-04-17 23:23 | 42.66853 | 12.53198 | 31097 ft | 509 kts | 126° |
| 2026-04-17 23:23 | 42.62489 | 12.60771 | 31096 ft | 509 kts | 126° |
| 2026-04-17 23:24 | 42.58118 | 12.68335 | 31095 ft | 508 kts | 126° |
| 2026-04-17 23:24 | 42.53748 | 12.75877 | 31092 ft | 508 kts | 126° |
| 2026-04-17 23:25 | 42.49370 | 12.83415 | 31112 ft | 508 kts | 126° |
| 2026-04-17 23:25 | 42.44988 | 12.90941 | 31097 ft | 509 kts | 126° |
| 2026-04-17 23:26 | 42.40603 | 12.98453 | 31104 ft | 509 kts | 126° |
| 2026-04-17 23:26 | 42.36236 | 13.05914 | 31113 ft | 508 kts | 126° |
| 2026-04-17 23:27 | 42.31842 | 13.13407 | 31125 ft | 508 kts | 126° |
| 2026-04-17 23:27 | 42.27444 | 13.20883 | 31116 ft | 508 kts | 126° |
| 2026-04-17 23:28 | 42.23044 | 13.28344 | 31112 ft | 508 kts | 126° |
| 2026-04-17 23:28 | 42.18643 | 13.35791 | 31133 ft | 508 kts | 126° |
| 2026-04-17 23:29 | 42.14228 | 13.43242 | 31141 ft | 508 kts | 126° |
| 2026-04-17 23:29 | 42.09818 | 13.50665 | 31152 ft | 507 kts | 126° |
| 2026-04-17 23:30 | 42.05399 | 13.58087 | 31129 ft | 507 kts | 126° |
| 2026-04-17 23:30 | 42.00984 | 13.65482 | 31126 ft | 507 kts | 126° |
| 2026-04-17 23:31 | 41.96554 | 13.72884 | 31123 ft | 508 kts | 127° |
| 2026-04-17 23:31 | 41.92145 | 13.80232 | 31145 ft | 508 kts | 127° |
| 2026-04-17 23:32 | 41.87700 | 13.87625 | 31130 ft | 508 kts | 126° |
| 2026-04-17 23:32 | 41.83254 | 13.95002 | 31118 ft | 508 kts | 126° |
| 2026-04-17 23:33 | 41.78803 | 14.02366 | 31116 ft | 508 kts | 126° |
| 2026-04-17 23:33 | 41.74348 | 14.09717 | 31115 ft | 507 kts | 126° |
| 2026-04-17 23:34 | 41.69902 | 14.17039 | 31098 ft | 507 kts | 127° |
| 2026-04-17 23:34 | 41.65453 | 14.24348 | 31115 ft | 507 kts | 127° |
| 2026-04-17 23:35 | 41.61033 | 14.31590 | 31098 ft | 507 kts | 127° |
| 2026-04-17 23:35 | 41.56568 | 14.38889 | 31098 ft | 507 kts | 127° |
| 2026-04-17 23:36 | 41.52104 | 14.46170 | 31090 ft | 507 kts | 127° |
| 2026-04-17 23:36 | 41.47627 | 14.53454 | 31083 ft | 507 kts | 127° |
| 2026-04-17 23:37 | 41.43147 | 14.60724 | 31090 ft | 507 kts | 127° |
| 2026-04-17 23:37 | 41.38666 | 14.67980 | 31072 ft | 507 kts | 127° |
| 2026-04-17 23:38 | 41.34175 | 14.75232 | 31080 ft | 507 kts | 127° |
| 2026-04-17 23:38 | 41.29687 | 14.82464 | 31075 ft | 507 kts | 127° |
| 2026-04-17 23:39 | 41.25230 | 14.89630 | 31076 ft | 506 kts | 127° |
| 2026-04-17 23:39 | 41.20736 | 14.96836 | 31087 ft | 506 kts | 127° |
| 2026-04-17 23:40 | 41.16233 | 15.04041 | 31081 ft | 506 kts | 127° |
| 2026-04-17 23:40 | 41.11733 | 15.11223 | 31073 ft | 506 kts | 127° |
| 2026-04-17 23:41 | 41.07233 | 15.18390 | 31084 ft | 506 kts | 127° |
| 2026-04-17 23:41 | 41.02715 | 15.25567 | 31073 ft | 506 kts | 127° |
| 2026-04-17 23:42 | 40.98206 | 15.32714 | 31083 ft | 505 kts | 127° |
| 2026-04-17 23:42 | 40.93723 | 15.39803 | 31074 ft | 505 kts | 127° |
| 2026-04-17 23:43 | 40.89211 | 15.46920 | 31082 ft | 505 kts | 127° |
| 2026-04-17 23:43 | 40.84697 | 15.54024 | 31080 ft | 505 kts | 127° |
| 2026-04-17 23:44 | 40.80174 | 15.61126 | 31078 ft | 505 kts | 127° |
| 2026-04-17 23:44 | 40.75648 | 15.68217 | 31073 ft | 505 kts | 128° |
| 2026-04-17 23:45 | 40.68892 | 15.78769 | 31065 ft | 504 kts | 128° |
| 2026-04-17 23:46 | 40.64370 | 15.85813 | 31058 ft | 503 kts | 128° |
| 2026-04-17 23:46 | 40.59843 | 15.92846 | 31050 ft | 502 kts | 128° |
| 2026-04-17 23:47 | 40.55318 | 15.99862 | 31063 ft | 503 kts | 128° |
| 2026-04-17 23:47 | 40.50792 | 16.06863 | 31039 ft | 502 kts | 128° |
| 2026-04-17 23:48 | 40.46263 | 16.13853 | 31037 ft | 502 kts | 128° |
| 2026-04-17 23:48 | 40.41757 | 16.20791 | 31026 ft | 502 kts | 128° |
| 2026-04-17 23:49 | 40.37226 | 16.27754 | 31047 ft | 502 kts | 129° |
| 2026-04-17 23:49 | 40.32693 | 16.34702 | 31079 ft | 502 kts | 129° |
| 2026-04-17 23:50 | 40.28137 | 16.41670 | 31088 ft | 503 kts | 129° |
| 2026-04-17 23:50 | 40.23576 | 16.48630 | 31082 ft | 504 kts | 129° |
| 2026-04-17 23:51 | 40.19006 | 16.55587 | 31075 ft | 504 kts | 129° |
| 2026-04-17 23:51 | 40.14422 | 16.62550 | 31050 ft | 505 kts | 129° |
| 2026-04-17 23:52 | 40.09830 | 16.69509 | 31006 ft | 505 kts | 129° |
| 2026-04-17 23:52 | 40.05242 | 16.76448 | 30971 ft | 505 kts | 129° |
| 2026-04-17 23:53 | 40.00679 | 16.83332 | 30989 ft | 504 kts | 129° |
| 2026-04-17 23:53 | 39.96088 | 16.90243 | 30983 ft | 504 kts | 129° |
| 2026-04-17 23:54 | 39.91494 | 16.97144 | 30989 ft | 504 kts | 129° |
| 2026-04-17 23:54 | 39.86898 | 17.04032 | 30971 ft | 503 kts | 129° |
| 2026-04-17 23:55 | 39.82297 | 17.10914 | 30957 ft | 503 kts | 129° |
| 2026-04-17 23:55 | 39.77701 | 17.17771 | 30986 ft | 503 kts | 129° |
| 2026-04-17 23:56 | 39.73095 | 17.24628 | 30958 ft | 503 kts | 129° |
| 2026-04-17 23:56 | 39.68492 | 17.31467 | 30959 ft | 503 kts | 129° |
| 2026-04-17 23:57 | 39.63884 | 17.38297 | 30951 ft | 503 kts | 130° |
| 2026-04-17 23:57 | 39.59292 | 17.45089 | 30957 ft | 504 kts | 130° |
| 2026-04-17 23:58 | 39.54654 | 17.51935 | 30948 ft | 505 kts | 130° |
| 2026-04-17 23:58 | 39.50007 | 17.58778 | 30948 ft | 505 kts | 130° |
| 2026-04-17 23:59 | 39.45357 | 17.65608 | 30939 ft | 506 kts | 130° |
| 2026-04-17 23:59 | 39.40695 | 17.72443 | 30960 ft | 505 kts | 130° |
| 2026-04-18 00:00 | 39.36044 | 17.79246 | 30934 ft | 505 kts | 130° |
| 2026-04-18 00:00 | 39.31391 | 17.86038 | 30935 ft | 504 kts | 130° |
| 2026-04-18 00:01 | 39.26769 | 17.92772 | 30936 ft | 504 kts | 130° |
| 2026-04-18 00:01 | 39.22117 | 17.99533 | 30926 ft | 504 kts | 130° |
| 2026-04-18 00:02 | 39.17452 | 18.06297 | 30921 ft | 505 kts | 130° |
| 2026-04-18 00:02 | 39.12777 | 18.13062 | 30926 ft | 505 kts | 130° |
| 2026-04-18 00:03 | 39.08105 | 18.19809 | 30915 ft | 505 kts | 130° |
| 2026-04-18 00:03 | 39.03418 | 18.26561 | 30913 ft | 505 kts | 130° |
| 2026-04-18 00:04 | 38.98761 | 18.33258 | 30915 ft | 505 kts | 131° |
| 2026-04-18 00:04 | 38.94078 | 18.39978 | 30919 ft | 505 kts | 130° |
| 2026-04-18 00:05 | 38.89389 | 18.46691 | 30918 ft | 505 kts | 131° |
| 2026-04-18 00:05 | 38.84702 | 18.53386 | 30917 ft | 504 kts | 131° |
| 2026-04-18 00:06 | 38.80016 | 18.60065 | 30910 ft | 503 kts | 131° |
| 2026-04-18 00:06 | 38.75338 | 18.66719 | 30909 ft | 503 kts | 131° |
| 2026-04-18 00:07 | 38.70646 | 18.73382 | 30912 ft | 503 kts | 131° |
| 2026-04-18 00:07 | 38.65949 | 18.80036 | 30915 ft | 503 kts | 131° |
| 2026-04-18 00:08 | 38.62042 | 18.85560 | 30904 ft | 504 kts | 131° |
| 2026-04-18 00:08 | 38.57329 | 18.92211 | 30899 ft | 505 kts | 131° |
| 2026-04-18 00:09 | 38.52609 | 18.98860 | 30895 ft | 505 kts | 131° |
| 2026-04-18 00:09 | 38.47811 | 19.05403 | 30890 ft | 504 kts | 134° |
| 2026-04-18 00:10 | 38.42912 | 19.11765 | 30893 ft | 505 kts | 134° |
| 2026-04-18 00:10 | 38.37978 | 19.18153 | 30895 ft | 505 kts | 134° |
| 2026-04-18 00:11 | 38.33064 | 19.24550 | 30897 ft | 505 kts | 134° |
| 2026-04-18 00:11 | 38.28154 | 19.30956 | 30892 ft | 505 kts | 134° |
| 2026-04-18 00:12 | 38.23242 | 19.37358 | 30893 ft | 505 kts | 134° |
| 2026-04-18 00:12 | 38.18313 | 19.43766 | 30885 ft | 505 kts | 134° |
| 2026-04-18 00:13 | 38.13401 | 19.50136 | 30886 ft | 504 kts | 134° |
| 2026-04-18 00:13 | 38.08495 | 19.56484 | 30875 ft | 502 kts | 134° |
| 2026-04-18 00:14 | 38.03641 | 19.62753 | 30880 ft | 501 kts | 135° |
| 2026-04-18 00:14 | 37.98747 | 19.69061 | 30871 ft | 500 kts | 135° |
| 2026-04-18 00:15 | 37.93866 | 19.75339 | 30872 ft | 501 kts | 135° |
| 2026-04-18 00:15 | 37.88971 | 19.81623 | 30881 ft | 501 kts | 135° |
| 2026-04-18 00:16 | 37.84060 | 19.87915 | 30875 ft | 501 kts | 134° |
| 2026-04-18 00:16 | 37.79163 | 19.94176 | 30864 ft | 501 kts | 134° |
| 2026-04-18 00:17 | 37.74265 | 20.00426 | 30867 ft | 500 kts | 134° |
| 2026-04-18 00:17 | 37.69388 | 20.06637 | 30866 ft | 500 kts | 135° |
| 2026-04-18 00:18 | 37.64488 | 20.12865 | 30861 ft | 500 kts | 135° |
| 2026-04-18 00:18 | 37.59584 | 20.19085 | 30863 ft | 500 kts | 134° |
| 2026-04-18 00:19 | 37.54676 | 20.25297 | 30853 ft | 499 kts | 134° |
| 2026-04-18 00:19 | 37.49781 | 20.31483 | 30855 ft | 499 kts | 134° |
| 2026-04-18 00:20 | 37.44872 | 20.37673 | 30855 ft | 499 kts | 134° |
| 2026-04-18 00:20 | 37.39959 | 20.43856 | 30857 ft | 499 kts | 134° |
| 2026-04-18 00:21 | 37.35042 | 20.50032 | 30856 ft | 500 kts | 134° |
| 2026-04-18 00:21 | 37.30114 | 20.56209 | 30846 ft | 500 kts | 134° |
| 2026-04-18 00:22 | 37.25222 | 20.62328 | 30844 ft | 499 kts | 134° |
| 2026-04-18 00:22 | 37.20304 | 20.68470 | 30840 ft | 499 kts | 134° |
| 2026-04-18 00:23 | 37.15383 | 20.74603 | 30840 ft | 498 kts | 134° |
| 2026-04-18 00:23 | 37.10461 | 20.80725 | 30846 ft | 498 kts | 134° |
| 2026-04-18 00:24 | 37.05540 | 20.86834 | 30844 ft | 497 kts | 134° |
| 2026-04-18 00:24 | 37.00621 | 20.92928 | 30844 ft | 497 kts | 134° |
| 2026-04-18 00:25 | 36.95704 | 20.99008 | 30835 ft | 497 kts | 134° |
| 2026-04-18 00:25 | 36.90783 | 21.05083 | 30833 ft | 497 kts | 134° |
| 2026-04-18 00:26 | 36.85858 | 21.11150 | 30840 ft | 497 kts | 134° |
| 2026-04-18 00:26 | 36.80956 | 21.17177 | 30838 ft | 497 kts | 134° |
| 2026-04-18 00:27 | 36.76026 | 21.23227 | 30832 ft | 497 kts | 134° |
| 2026-04-18 00:27 | 36.71091 | 21.29273 | 30828 ft | 497 kts | 135° |
| 2026-04-18 00:28 | 36.66145 | 21.35319 | 30824 ft | 497 kts | 135° |
| 2026-04-18 00:28 | 36.61209 | 21.41342 | 30833 ft | 497 kts | 135° |
| 2026-04-18 00:29 | 36.56271 | 21.47355 | 30837 ft | 496 kts | 135° |
| 2026-04-18 00:29 | 36.51331 | 21.53361 | 30829 ft | 496 kts | 135° |
| 2026-04-18 00:30 | 36.46417 | 21.59323 | 30825 ft | 496 kts | 135° |
| 2026-04-18 00:30 | 36.41475 | 21.65308 | 30830 ft | 497 kts | 135° |
| 2026-04-18 00:31 | 36.36518 | 21.71299 | 30834 ft | 497 kts | 135° |
| 2026-04-18 00:31 | 36.31563 | 21.77278 | 30831 ft | 497 kts | 135° |
| 2026-04-18 00:32 | 36.26606 | 21.83247 | 30829 ft | 497 kts | 135° |
| 2026-04-18 00:32 | 36.21647 | 21.89208 | 30830 ft | 496 kts | 135° |
| 2026-04-18 00:33 | 36.16714 | 21.95126 | 30831 ft | 496 kts | 135° |
| 2026-04-18 00:33 | 36.11723 | 22.01103 | 30830 ft | 496 kts | 135° |
| 2026-04-18 00:34 | 36.06797 | 22.06991 | 30838 ft | 496 kts | 135° |
| 2026-04-18 00:34 | 36.01835 | 22.12911 | 30828 ft | 496 kts | 135° |
| 2026-04-18 00:35 | 35.96875 | 22.18819 | 30828 ft | 495 kts | 135° |
| 2026-04-18 00:35 | 35.91913 | 22.24717 | 30830 ft | 495 kts | 135° |
| 2026-04-18 00:36 | 35.86944 | 22.30613 | 30832 ft | 495 kts | 135° |
| 2026-04-18 00:36 | 35.81978 | 22.36494 | 30829 ft | 495 kts | 135° |
| 2026-04-18 00:37 | 35.77011 | 22.42367 | 30831 ft | 495 kts | 135° |
| 2026-04-18 00:37 | 35.72072 | 22.48195 | 30830 ft | 495 kts | 135° |
| 2026-04-18 00:38 | 35.67097 | 22.54056 | 30831 ft | 495 kts | 135° |
| 2026-04-18 00:38 | 35.62119 | 22.59908 | 30831 ft | 496 kts | 135° |
| 2026-04-18 00:39 | 35.57124 | 22.65771 | 30833 ft | 496 kts | 135° |
| 2026-04-18 00:39 | 35.52127 | 22.71626 | 30830 ft | 497 kts | 135° |
| 2026-04-18 00:40 | 35.47124 | 22.77476 | 30826 ft | 497 kts | 135° |
| 2026-04-18 00:40 | 35.42119 | 22.83319 | 30826 ft | 497 kts | 135° |
| 2026-04-18 00:41 | 35.37090 | 22.89178 | 30826 ft | 498 kts | 135° |
| 2026-04-18 00:41 | 35.32104 | 22.94978 | 30825 ft | 498 kts | 135° |
| 2026-04-18 00:42 | 35.27069 | 23.00823 | 30819 ft | 499 kts | 135° |
| 2026-04-18 00:42 | 35.22036 | 23.06656 | 30823 ft | 499 kts | 135° |
| 2026-04-18 00:43 | 35.16996 | 23.12486 | 30816 ft | 499 kts | 135° |
| 2026-04-18 00:43 | 35.11915 | 23.18354 | 30820 ft | 504 kts | 136° |
| 2026-04-18 00:44 | 35.06813 | 23.24235 | 30811 ft | 503 kts | 136° |
| 2026-04-18 00:44 | 35.01745 | 23.30066 | 30801 ft | 500 kts | 135° |
| 2026-04-18 00:45 | 34.96664 | 23.35903 | 30802 ft | 504 kts | 135° |
| 2026-04-18 00:45 | 34.91556 | 23.41759 | 30799 ft | 504 kts | 136° |
| 2026-04-18 00:46 | 34.86451 | 23.47601 | 30800 ft | 502 kts | 136° |
| 2026-04-18 00:46 | 34.81409 | 23.53361 | 30779 ft | 500 kts | 136° |
| 2026-04-18 00:47 | 34.76334 | 23.59148 | 30778 ft | 501 kts | 135° |
| 2026-04-18 00:47 | 34.71232 | 23.64957 | 30784 ft | 502 kts | 136° |
| 2026-04-18 00:48 | 34.66119 | 23.70767 | 30774 ft | 502 kts | 136° |
| 2026-04-18 00:48 | 34.61030 | 23.76540 | 30779 ft | 500 kts | 136° |
| 2026-04-18 00:49 | 34.53417 | 23.85155 | 30768 ft | 499 kts | 136° |
| 2026-04-18 00:49 | 34.48369 | 23.90858 | 30770 ft | 499 kts | 136° |
| 2026-04-18 00:50 | 34.43293 | 23.96581 | 30769 ft | 499 kts | 136° |
| 2026-04-18 00:50 | 34.38197 | 24.02317 | 30771 ft | 499 kts | 136° |
| 2026-04-18 00:51 | 34.33094 | 24.08050 | 30778 ft | 500 kts | 136° |
| 2026-04-18 00:51 | 34.28009 | 24.13753 | 30772 ft | 501 kts | 136° |
| 2026-04-18 00:52 | 34.22890 | 24.19485 | 30767 ft | 502 kts | 136° |
| 2026-04-18 00:52 | 34.17756 | 24.25223 | 30772 ft | 503 kts | 136° |
| 2026-04-18 00:53 | 34.12606 | 24.30971 | 30770 ft | 504 kts | 136° |
| 2026-04-18 00:53 | 34.07453 | 24.36711 | 30770 ft | 504 kts | 136° |
| 2026-04-18 00:54 | 34.02290 | 24.42455 | 30770 ft | 505 kts | 136° |
| 2026-04-18 00:54 | 33.97103 | 24.48172 | 30771 ft | 507 kts | 137° |
| 2026-04-18 00:55 | 33.91833 | 24.53833 | 30762 ft | 507 kts | 137° |
| 2026-04-18 00:55 | 33.87440 | 24.58526 | 30769 ft | 508 kts | 137° |
| 2026-04-18 00:56 | 33.81292 | 24.65105 | 30758 ft | 508 kts | 137° |
| 2026-04-18 00:56 | 33.76011 | 24.70760 | 30764 ft | 508 kts | 137° |
| 2026-04-18 00:57 | 33.71620 | 24.75459 | 30764 ft | 508 kts | 137° |
| 2026-04-18 00:57 | 33.66338 | 24.81099 | 30757 ft | 507 kts | 137° |
| 2026-04-18 00:58 | 33.61063 | 24.86724 | 30761 ft | 507 kts | 138° |
| 2026-04-18 00:58 | 33.55796 | 24.92328 | 30764 ft | 506 kts | 138° |
| 2026-04-18 00:59 | 33.50528 | 24.97924 | 30764 ft | 506 kts | 138° |
| 2026-04-18 00:59 | 33.45261 | 25.03510 | 30760 ft | 506 kts | 138° |
| 2026-04-18 01:00 | 33.39973 | 25.09109 | 30760 ft | 508 kts | 138° |
| 2026-04-18 01:00 | 33.34674 | 25.14710 | 30764 ft | 509 kts | 138° |
| 2026-04-18 01:01 | 33.29389 | 25.20287 | 30762 ft | 510 kts | 138° |
| 2026-04-18 01:01 | 33.24067 | 25.25892 | 30758 ft | 510 kts | 138° |
| 2026-04-18 01:02 | 33.18731 | 25.31504 | 30758 ft | 510 kts | 138° |
| 2026-04-18 01:02 | 33.13396 | 25.37105 | 30756 ft | 511 kts | 138° |
| 2026-04-18 01:03 | 33.08040 | 25.42718 | 30764 ft | 512 kts | 138° |
| 2026-04-18 01:03 | 33.02677 | 25.48330 | 30758 ft | 513 kts | 138° |
| 2026-04-18 01:04 | 32.97306 | 25.53940 | 30755 ft | 513 kts | 139° |
| 2026-04-18 01:04 | 32.91967 | 25.59507 | 30758 ft | 512 kts | 139° |
| 2026-04-18 01:05 | 32.86605 | 25.65088 | 30759 ft | 512 kts | 139° |
| 2026-04-18 01:05 | 32.81222 | 25.70683 | 30757 ft | 514 kts | 139° |
| 2026-04-18 01:06 | 32.75826 | 25.76282 | 30761 ft | 515 kts | 139° |
| 2026-04-18 01:06 | 32.70412 | 25.81890 | 30752 ft | 516 kts | 140° |
| 2026-04-18 01:07 | 32.64994 | 25.87493 | 30756 ft | 517 kts | 140° |
| 2026-04-18 01:07 | 32.59601 | 25.93061 | 30760 ft | 517 kts | 140° |
| 2026-04-18 01:08 | 32.54174 | 25.98655 | 30754 ft | 518 kts | 140° |
| 2026-04-18 01:08 | 32.48724 | 26.04262 | 30764 ft | 518 kts | 140° |
| 2026-04-18 01:09 | 32.43271 | 26.09864 | 30761 ft | 519 kts | 140° |
| 2026-04-18 01:09 | 32.37806 | 26.15469 | 30753 ft | 519 kts | 141° |
| 2026-04-18 01:10 | 32.32354 | 26.21051 | 30766 ft | 518 kts | 141° |
| 2026-04-18 01:10 | 32.26893 | 26.26632 | 30766 ft | 518 kts | 141° |
| 2026-04-18 01:11 | 32.21438 | 26.32197 | 30766 ft | 517 kts | 141° |
| 2026-04-18 01:11 | 32.15991 | 26.37748 | 30766 ft | 517 kts | 141° |
| 2026-04-18 01:12 | 32.10591 | 26.43241 | 30769 ft | 516 kts | 142° |
| 2026-04-18 01:12 | 32.05147 | 26.48770 | 30761 ft | 516 kts | 142° |
| 2026-04-18 01:13 | 31.99709 | 26.54283 | 30768 ft | 515 kts | 142° |
| 2026-04-18 01:13 | 31.94277 | 26.59782 | 30759 ft | 515 kts | 143° |
| 2026-04-18 01:14 | 31.88838 | 26.65277 | 30765 ft | 515 kts | 143° |
| 2026-04-18 01:14 | 31.83395 | 26.70768 | 30759 ft | 516 kts | 143° |
| 2026-04-18 01:15 | 31.77930 | 26.76273 | 30759 ft | 517 kts | 143° |
| 2026-04-18 01:15 | 31.72466 | 26.81770 | 30742 ft | 518 kts | 145° |
| 2026-04-18 01:16 | 31.66974 | 26.87283 | 30746 ft | 520 kts | 145° |
| 2026-04-18 01:16 | 31.61451 | 26.92819 | 30746 ft | 524 kts | 146° |
| 2026-04-18 01:17 | 31.55892 | 26.98379 | 30749 ft | 527 kts | 146° |
| 2026-04-18 01:17 | 31.50339 | 27.03930 | 30738 ft | 528 kts | 146° |
| 2026-04-18 01:18 | 31.44745 | 27.09514 | 30737 ft | 528 kts | 146° |
| 2026-04-18 01:18 | 31.39163 | 27.15078 | 30737 ft | 526 kts | 147° |
| 2026-04-18 01:19 | 31.33589 | 27.20620 | 30739 ft | 525 kts | 147° |
| 2026-04-18 01:19 | 31.28004 | 27.26036 | 30749 ft | 522 kts | 149° |
| 2026-04-18 01:20 | 31.22302 | 27.31257 | 30747 ft | 520 kts | 150° |
| 2026-04-18 01:20 | 31.16588 | 27.36455 | 30743 ft | 520 kts | 150° |
| 2026-04-18 01:21 | 31.10890 | 27.41680 | 30708 ft | 521 kts | 150° |
| 2026-04-18 01:21 | 31.05190 | 27.46926 | 30738 ft | 521 kts | 150° |
| 2026-04-18 01:22 | 30.99479 | 27.52179 | 30740 ft | 522 kts | 150° |
| 2026-04-18 01:22 | 30.93766 | 27.57422 | 30750 ft | 523 kts | 150° |
| 2026-04-18 01:23 | 30.88048 | 27.62658 | 30753 ft | 524 kts | 150° |
| 2026-04-18 01:23 | 30.82315 | 27.67901 | 30763 ft | 524 kts | 150° |
| 2026-04-18 01:24 | 30.76592 | 27.73128 | 30768 ft | 522 kts | 150° |
| 2026-04-18 01:24 | 30.70876 | 27.78341 | 30764 ft | 522 kts | 150° |
| 2026-04-18 01:25 | 30.65176 | 27.83529 | 30766 ft | 521 kts | 150° |
| 2026-04-18 01:25 | 30.59466 | 27.88718 | 30774 ft | 520 kts | 150° |
| 2026-04-18 01:26 | 30.53763 | 27.93892 | 30775 ft | 520 kts | 150° |
| 2026-04-18 01:26 | 30.48100 | 27.99022 | 30765 ft | 520 kts | 150° |
| 2026-04-18 01:27 | 30.42406 | 28.04174 | 30772 ft | 519 kts | 150° |
| 2026-04-18 01:27 | 30.36690 | 28.09338 | 30776 ft | 519 kts | 150° |
| 2026-04-18 01:28 | 30.31002 | 28.14468 | 30784 ft | 518 kts | 150° |
| 2026-04-18 01:28 | 30.25343 | 28.19564 | 30785 ft | 518 kts | 150° |
| 2026-04-18 01:29 | 30.19653 | 28.24680 | 30793 ft | 518 kts | 150° |
| 2026-04-18 01:29 | 30.13950 | 28.29801 | 30789 ft | 518 kts | 150° |
| 2026-04-18 01:30 | 30.08253 | 28.34908 | 30799 ft | 518 kts | 151° |
| 2026-04-18 01:30 | 30.02557 | 28.40008 | 30786 ft | 518 kts | 151° |
| 2026-04-18 01:31 | 29.96896 | 28.45069 | 30802 ft | 517 kts | 151° |
| 2026-04-18 01:31 | 29.91204 | 28.50149 | 30804 ft | 517 kts | 151° |
| 2026-04-18 01:32 | 29.85507 | 28.55226 | 30799 ft | 517 kts | 151° |
| 2026-04-18 01:32 | 29.79803 | 28.60304 | 30795 ft | 518 kts | 153° |
| 2026-04-18 01:33 | 29.74093 | 28.65376 | 30801 ft | 519 kts | 153° |
| 2026-04-18 01:33 | 29.68376 | 28.70452 | 30787 ft | 520 kts | 153° |
| 2026-04-18 01:34 | 29.62956 | 28.76166 | 30795 ft | 538 kts | 142° |
| 2026-04-18 01:34 | 29.58300 | 28.82975 | 30806 ft | 547 kts | 136° |
| 2026-04-18 01:35 | 29.53712 | 28.89959 | 30802 ft | 546 kts | 137° |
| 2026-04-18 01:35 | 29.49078 | 28.96849 | 30743 ft | 544 kts | 139° |
| 2026-04-18 01:36 | 29.44422 | 29.03705 | 30794 ft | 543 kts | 140° |
| 2026-04-18 01:36 | 29.39275 | 29.09838 | 30816 ft | 526 kts | 151° |
| 2026-04-18 01:37 | 29.33525 | 29.14846 | 30826 ft | 518 kts | 156° |
| 2026-04-18 01:37 | 29.27753 | 29.19744 | 30826 ft | 522 kts | 155° |
| 2026-04-18 01:38 | 29.21937 | 29.24762 | 30821 ft | 524 kts | 155° |
| 2026-04-18 01:38 | 29.16129 | 29.29787 | 30781 ft | 523 kts | 155° |
| 2026-04-18 01:39 | 29.10326 | 29.34769 | 30827 ft | 520 kts | 156° |
| 2026-04-18 01:39 | 29.04479 | 29.39642 | 30826 ft | 518 kts | 156° |
| 2026-04-18 01:40 | 28.98633 | 29.44467 | 30838 ft | 518 kts | 156° |
| 2026-04-18 01:40 | 28.92796 | 29.49293 | 30836 ft | 518 kts | 156° |
| 2026-04-18 01:41 | 28.87008 | 29.54089 | 30803 ft | 517 kts | 156° |
| 2026-04-18 01:41 | 28.81192 | 29.58909 | 30831 ft | 516 kts | 156° |
| 2026-04-18 01:42 | 28.75384 | 29.63711 | 30842 ft | 516 kts | 156° |
| 2026-04-18 01:42 | 28.69569 | 29.68510 | 30848 ft | 516 kts | 156° |
| 2026-04-18 01:43 | 28.63750 | 29.73305 | 30849 ft | 516 kts | 156° |
| 2026-04-18 01:43 | 28.57926 | 29.78100 | 30853 ft | 517 kts | 156° |
| 2026-04-18 01:44 | 28.52101 | 29.82889 | 30796 ft | 516 kts | 156° |
| 2026-04-18 01:44 | 28.47260 | 29.86864 | 30863 ft | 515 kts | 156° |
| 2026-04-18 01:45 | 28.40498 | 29.92408 | 30867 ft | 516 kts | 156° |
| 2026-04-18 01:45 | 28.34685 | 29.97167 | 30869 ft | 516 kts | 156° |
| 2026-04-18 01:46 | 28.28853 | 30.01935 | 30872 ft | 516 kts | 156° |
| 2026-04-18 01:46 | 28.23965 | 30.05926 | 30877 ft | 516 kts | 156° |
| 2026-04-18 01:47 | 28.18172 | 30.10651 | 30863 ft | 515 kts | 155° |
| 2026-04-18 01:47 | 28.12351 | 30.15393 | 30877 ft | 515 kts | 155° |
| 2026-04-18 01:48 | 28.06532 | 30.20125 | 30886 ft | 515 kts | 155° |
| 2026-04-18 01:48 | 28.00695 | 30.24864 | 30889 ft | 516 kts | 155° |
| 2026-04-18 01:49 | 27.94863 | 30.29594 | 30892 ft | 516 kts | 155° |
| 2026-04-18 01:49 | 27.89026 | 30.34322 | 30867 ft | 516 kts | 155° |
| 2026-04-18 01:50 | 27.83194 | 30.39039 | 30895 ft | 515 kts | 155° |
| 2026-04-18 01:50 | 27.77391 | 30.43727 | 30894 ft | 516 kts | 155° |
| 2026-04-18 01:51 | 27.71553 | 30.48436 | 30912 ft | 516 kts | 155° |
| 2026-04-18 01:51 | 27.65705 | 30.53147 | 30904 ft | 516 kts | 155° |
| 2026-04-18 01:52 | 27.59845 | 30.57862 | 30912 ft | 516 kts | 155° |
| 2026-04-18 01:52 | 27.53991 | 30.62566 | 30898 ft | 516 kts | 155° |
| 2026-04-18 01:53 | 27.48129 | 30.67269 | 30921 ft | 517 kts | 155° |
| 2026-04-18 01:54 | 27.39374 | 30.74282 | 30926 ft | 517 kts | 155° |
| 2026-04-18 01:54 | 27.33503 | 30.78978 | 30937 ft | 517 kts | 155° |
| 2026-04-18 01:55 | 27.27626 | 30.83673 | 30936 ft | 518 kts | 155° |
| 2026-04-18 01:55 | 27.21753 | 30.88357 | 30928 ft | 518 kts | 155° |
| 2026-04-18 01:56 | 27.15876 | 30.93040 | 30934 ft | 518 kts | 155° |
| 2026-04-18 01:56 | 27.10022 | 30.97699 | 30932 ft | 519 kts | 155° |
| 2026-04-18 01:57 | 27.04204 | 31.02561 | 30930 ft | 529 kts | 149° |
| 2026-04-18 01:57 | 26.99003 | 31.08589 | 30938 ft | 546 kts | 138° |
| 2026-04-18 01:58 | 26.94265 | 31.15241 | 30945 ft | 547 kts | 137° |
| 2026-04-18 01:58 | 26.89515 | 31.21898 | 30936 ft | 546 kts | 138° |
| 2026-04-18 01:59 | 26.84737 | 31.28502 | 30931 ft | 544 kts | 138° |
| 2026-04-18 01:59 | 26.79965 | 31.35047 | 30923 ft | 543 kts | 138° |
| 2026-04-18 02:00 | 26.75177 | 31.41598 | 30924 ft | 543 kts | 138° |
| 2026-04-18 02:00 | 26.70424 | 31.48100 | 30926 ft | 543 kts | 138° |
| 2026-04-18 02:01 | 26.65613 | 31.54675 | 30908 ft | 543 kts | 138° |
| 2026-04-18 02:01 | 26.60829 | 31.61205 | 30916 ft | 542 kts | 138° |
| 2026-04-18 02:02 | 26.56076 | 31.67682 | 30907 ft | 543 kts | 138° |
| 2026-04-18 02:02 | 26.51282 | 31.74205 | 30872 ft | 543 kts | 138° |
| 2026-04-18 02:03 | 26.46485 | 31.80724 | 30870 ft | 542 kts | 138° |
| 2026-04-18 02:03 | 26.41693 | 31.87224 | 30893 ft | 542 kts | 138° |
| 2026-04-18 02:04 | 26.36895 | 31.93725 | 30895 ft | 542 kts | 138° |
| 2026-04-18 02:04 | 26.32098 | 32.00214 | 30867 ft | 543 kts | 138° |
| 2026-04-18 02:05 | 26.27292 | 32.06708 | 30884 ft | 543 kts | 138° |
| 2026-04-18 02:05 | 26.22481 | 32.13198 | 30880 ft | 543 kts | 138° |
| 2026-04-18 02:06 | 26.17687 | 32.19656 | 30875 ft | 543 kts | 138° |
| 2026-04-18 02:06 | 26.12864 | 32.26138 | 30869 ft | 544 kts | 138° |
| 2026-04-18 02:07 | 26.08030 | 32.32634 | 30847 ft | 543 kts | 138° |
| 2026-04-18 02:07 | 26.03205 | 32.39110 | 30846 ft | 543 kts | 137° |
| 2026-04-18 02:08 | 25.98379 | 32.45576 | 30845 ft | 543 kts | 138° |
| 2026-04-18 02:08 | 25.93546 | 32.52039 | 30830 ft | 544 kts | 138° |
| 2026-04-18 02:09 | 25.88733 | 32.58465 | 30820 ft | 544 kts | 137° |
| 2026-04-18 02:09 | 25.83896 | 32.64919 | 30806 ft | 544 kts | 137° |
| 2026-04-18 02:10 | 25.79044 | 32.71385 | 30800 ft | 544 kts | 137° |
| 2026-04-18 02:10 | 25.74246 | 32.77894 | 30810 ft | 548 kts | 134° |
| 2026-04-18 02:11 | 25.69982 | 32.84971 | 30847 ft | 552 kts | 130° |
| 2026-04-18 02:11 | 25.65802 | 32.92118 | 30820 ft | 552 kts | 129° |
| 2026-04-18 02:12 | 25.61581 | 32.99242 | 30825 ft | 552 kts | 130° |
| 2026-04-18 02:12 | 25.57326 | 33.06351 | 30783 ft | 553 kts | 130° |
| 2026-04-18 02:13 | 25.53104 | 33.13392 | 30787 ft | 551 kts | 130° |
| 2026-04-18 02:13 | 25.48871 | 33.20447 | 30805 ft | 549 kts | 130° |
| 2026-04-18 02:14 | 25.44646 | 33.27479 | 30820 ft | 549 kts | 130° |
| 2026-04-18 02:14 | 25.40416 | 33.34509 | 30815 ft | 549 kts | 130° |
| 2026-04-18 02:15 | 25.36177 | 33.41545 | 30816 ft | 550 kts | 130° |
| 2026-04-18 02:15 | 25.31933 | 33.48580 | 30814 ft | 550 kts | 130° |
| 2026-04-18 02:16 | 25.27677 | 33.55615 | 30796 ft | 551 kts | 130° |
| 2026-04-18 02:16 | 25.23414 | 33.62647 | 30808 ft | 550 kts | 130° |
| 2026-04-18 02:17 | 25.19153 | 33.69669 | 30798 ft | 549 kts | 130° |
| 2026-04-18 02:17 | 25.14928 | 33.76624 | 30812 ft | 548 kts | 130° |
| 2026-04-18 02:18 | 25.10677 | 33.83611 | 30803 ft | 548 kts | 130° |
| 2026-04-18 02:18 | 25.06423 | 33.90591 | 30812 ft | 547 kts | 130° |
| 2026-04-18 02:19 | 25.02167 | 33.97564 | 30794 ft | 547 kts | 130° |
| 2026-04-18 02:19 | 24.97918 | 34.04516 | 30823 ft | 547 kts | 130° |
| 2026-04-18 02:20 | 24.93657 | 34.11478 | 30820 ft | 548 kts | 130° |
| 2026-04-18 02:20 | 24.89418 | 34.18395 | 30815 ft | 548 kts | 130° |
| 2026-04-18 02:21 | 24.85123 | 34.25393 | 30817 ft | 548 kts | 130° |
| 2026-04-18 02:21 | 24.80876 | 34.32303 | 30822 ft | 548 kts | 130° |
| 2026-04-18 02:22 | 24.76601 | 34.39248 | 30829 ft | 548 kts | 130° |
| 2026-04-18 02:22 | 24.72325 | 34.46183 | 30824 ft | 548 kts | 130° |
| 2026-04-18 02:23 | 24.68043 | 34.53121 | 30821 ft | 547 kts | 130° |
| 2026-04-18 02:23 | 24.63770 | 34.60033 | 30826 ft | 546 kts | 130° |
| 2026-04-18 02:24 | 24.59490 | 34.66946 | 30834 ft | 546 kts | 130° |
| 2026-04-18 02:24 | 24.55212 | 34.73845 | 30810 ft | 546 kts | 130° |
| 2026-04-18 02:25 | 24.50932 | 34.80740 | 30822 ft | 546 kts | 130° |
| 2026-04-18 02:25 | 24.46650 | 34.87628 | 30818 ft | 546 kts | 130° |
| 2026-04-18 02:26 | 24.42361 | 34.94516 | 30817 ft | 545 kts | 130° |
| 2026-04-18 02:26 | 24.38110 | 35.01335 | 30802 ft | 545 kts | 130° |
| 2026-04-18 02:27 | 24.33827 | 35.08195 | 30808 ft | 544 kts | 130° |
| 2026-04-18 02:27 | 24.29558 | 35.15024 | 30802 ft | 543 kts | 130° |
| 2026-04-18 02:28 | 24.25290 | 35.21840 | 30804 ft | 542 kts | 130° |
| 2026-04-18 02:28 | 24.21021 | 35.28650 | 30786 ft | 542 kts | 130° |
| 2026-04-18 02:29 | 24.16754 | 35.35447 | 30787 ft | 541 kts | 130° |
| 2026-04-18 02:29 | 24.12480 | 35.42245 | 30787 ft | 542 kts | 130° |
| 2026-04-18 02:30 | 24.08200 | 35.49045 | 30788 ft | 542 kts | 130° |
| 2026-04-18 02:30 | 24.03921 | 35.55834 | 30785 ft | 541 kts | 129° |
| 2026-04-18 02:31 | 23.99646 | 35.62610 | 30782 ft | 540 kts | 130° |
| 2026-04-18 02:31 | 23.95374 | 35.69369 | 30781 ft | 540 kts | 130° |
| 2026-04-18 02:32 | 23.91100 | 35.76119 | 30758 ft | 539 kts | 129° |
| 2026-04-18 02:32 | 23.87557 | 35.81711 | 30771 ft | 538 kts | 129° |
| 2026-04-18 02:33 | 23.83299 | 35.88427 | 30771 ft | 537 kts | 129° |
| 2026-04-18 02:33 | 23.79042 | 35.95130 | 30773 ft | 536 kts | 129° |
| 2026-04-18 02:34 | 23.74780 | 36.01832 | 30772 ft | 536 kts | 129° |
| 2026-04-18 02:34 | 23.70552 | 36.08472 | 30771 ft | 537 kts | 129° |
| 2026-04-18 02:35 | 23.66283 | 36.15169 | 30773 ft | 537 kts | 129° |
| 2026-04-18 02:35 | 23.62015 | 36.21854 | 30773 ft | 537 kts | 129° |
| 2026-04-18 02:36 | 23.57737 | 36.28548 | 30762 ft | 537 kts | 129° |
| 2026-04-18 02:36 | 23.53455 | 36.35238 | 30763 ft | 537 kts | 129° |
| 2026-04-18 02:37 | 23.49206 | 36.41867 | 30763 ft | 537 kts | 129° |
| 2026-04-18 02:37 | 23.44920 | 36.48547 | 30752 ft | 537 kts | 129° |
| 2026-04-18 02:38 | 23.40635 | 36.55214 | 30759 ft | 538 kts | 129° |
| 2026-04-18 02:38 | 23.36336 | 36.61896 | 30760 ft | 539 kts | 129° |
| 2026-04-18 02:39 | 23.32026 | 36.68586 | 30758 ft | 540 kts | 129° |
| 2026-04-18 02:39 | 23.27703 | 36.75287 | 30754 ft | 541 kts | 129° |
| 2026-04-18 02:40 | 23.23370 | 36.81996 | 30758 ft | 542 kts | 129° |
| 2026-04-18 02:40 | 23.19032 | 36.88704 | 30754 ft | 543 kts | 129° |
| 2026-04-18 02:41 | 23.14688 | 36.95412 | 30752 ft | 543 kts | 129° |
| 2026-04-18 02:41 | 23.10344 | 37.02112 | 30748 ft | 543 kts | 129° |
| 2026-04-18 02:42 | 23.05985 | 37.08827 | 30752 ft | 543 kts | 129° |
| 2026-04-18 02:42 | 23.01651 | 37.15493 | 30750 ft | 544 kts | 129° |
| 2026-04-18 02:43 | 22.97234 | 37.22226 | 30760 ft | 544 kts | 130° |
| 2026-04-18 02:43 | 22.92862 | 37.28863 | 30755 ft | 544 kts | 129° |
| 2026-04-18 02:44 | 22.88464 | 37.35541 | 30767 ft | 544 kts | 129° |
| 2026-04-18 02:44 | 22.84057 | 37.42229 | 30775 ft | 544 kts | 129° |
| 2026-04-18 02:45 | 22.79651 | 37.48910 | 30766 ft | 544 kts | 129° |
| 2026-04-18 02:45 | 22.75249 | 37.55574 | 30768 ft | 544 kts | 129° |
| 2026-04-18 02:46 | 22.70862 | 37.62250 | 30769 ft | 543 kts | 129° |
| 2026-04-18 02:46 | 22.66488 | 37.68926 | 30769 ft | 543 kts | 129° |
| 2026-04-18 02:47 | 22.62151 | 37.75543 | 30773 ft | 542 kts | 129° |
| 2026-04-18 02:47 | 22.57777 | 37.82210 | 30775 ft | 542 kts | 129° |
| 2026-04-18 02:48 | 22.53408 | 37.88859 | 30773 ft | 542 kts | 129° |
| 2026-04-18 02:48 | 22.49044 | 37.95492 | 30771 ft | 541 kts | 129° |
| 2026-04-18 02:49 | 22.44671 | 38.02131 | 30773 ft | 541 kts | 129° |
| 2026-04-18 02:49 | 22.40303 | 38.08753 | 30776 ft | 541 kts | 129° |
| 2026-04-18 02:50 | 22.35932 | 38.15372 | 30775 ft | 541 kts | 129° |
| 2026-04-18 02:50 | 22.31548 | 38.22004 | 30771 ft | 541 kts | 129° |
| 2026-04-18 02:51 | 22.27167 | 38.28617 | 30777 ft | 541 kts | 129° |
| 2026-04-18 02:51 | 22.22803 | 38.35185 | 30777 ft | 541 kts | 129° |
| 2026-04-18 02:52 | 22.18415 | 38.41779 | 30772 ft | 541 kts | 129° |
| 2026-04-18 02:52 | 22.14025 | 38.48374 | 30764 ft | 541 kts | 129° |
| 2026-04-18 02:53 | 22.09634 | 38.54963 | 30775 ft | 540 kts | 129° |
| 2026-04-18 02:53 | 22.05240 | 38.61549 | 30776 ft | 540 kts | 129° |
| 2026-04-18 02:54 | 22.00848 | 38.68122 | 30768 ft | 540 kts | 129° |
| 2026-04-18 02:54 | 21.96452 | 38.74694 | 30771 ft | 540 kts | 129° |
| 2026-04-18 02:55 | 21.92083 | 38.81219 | 30766 ft | 540 kts | 129° |
| 2026-04-18 02:55 | 21.87685 | 38.87777 | 30769 ft | 540 kts | 129° |
| 2026-04-18 02:56 | 21.83282 | 38.94337 | 30776 ft | 541 kts | 129° |
| 2026-04-18 02:56 | 21.76659 | 39.04191 | 30780 ft | 541 kts | 129° |
| 2026-04-18 02:57 | 21.71535 | 39.09856 | 30747 ft | 522 kts | 155° |
| 2026-04-18 02:57 | 21.68259 | 39.11417 | 30798 ft | 513 kts | 168° |
| 2026-04-18 02:57 | 21.64793 | 39.12228 | 30793 ft | 507 kts | 180° |
| 2026-04-18 02:58 | 21.57826 | 39.12098 | 30780 ft | 502 kts | 188° |
| 2026-04-18 02:58 | 21.50867 | 39.11807 | 30777 ft | 505 kts | 188° |
| 2026-04-18 02:59 | 21.43854 | 39.11598 | 30765 ft | 503 kts | 187° |
| 2026-04-18 02:59 | 21.36870 | 39.11429 | 30774 ft | 500 kts | 187° |
| 2026-04-18 03:00 | 21.29924 | 39.11263 | 30783 ft | 498 kts | 187° |
| 2026-04-18 03:00 | 21.23015 | 39.11093 | 30791 ft | 496 kts | 187° |
| 2026-04-18 03:01 | 21.16101 | 39.10920 | 30784 ft | 497 kts | 187° |
| 2026-04-18 03:01 | 21.09215 | 39.10747 | 30801 ft | 498 kts | 187° |
| 2026-04-18 03:02 | 21.02279 | 39.10575 | 30804 ft | 500 kts | 187° |
| 2026-04-18 03:02 | 20.95313 | 39.10403 | 30803 ft | 500 kts | 187° |
| 2026-04-18 03:03 | 20.88333 | 39.10230 | 30799 ft | 501 kts | 187° |
| 2026-04-18 03:03 | 20.81345 | 39.10058 | 30805 ft | 502 kts | 187° |
| 2026-04-18 03:04 | 20.74373 | 39.09886 | 30803 ft | 503 kts | 187° |
| 2026-04-18 03:04 | 20.67366 | 39.09712 | 30788 ft | 503 kts | 187° |
| 2026-04-18 03:05 | 20.60367 | 39.09533 | 30796 ft | 503 kts | 187° |
| 2026-04-18 03:05 | 20.53406 | 39.09354 | 30800 ft | 503 kts | 187° |
| 2026-04-18 03:06 | 20.46397 | 39.09175 | 30804 ft | 504 kts | 187° |
| 2026-04-18 03:06 | 20.39384 | 39.08997 | 30800 ft | 504 kts | 187° |
| 2026-04-18 03:07 | 20.32374 | 39.08819 | 30804 ft | 504 kts | 187° |
| 2026-04-18 03:07 | 20.25356 | 39.08640 | 30802 ft | 504 kts | 187° |
| 2026-04-18 03:08 | 20.18344 | 39.08463 | 30802 ft | 503 kts | 187° |
| 2026-04-18 03:08 | 20.11386 | 39.08286 | 30802 ft | 503 kts | 187° |
| 2026-04-18 03:09 | 20.04368 | 39.08109 | 30803 ft | 503 kts | 187° |
| 2026-04-18 03:09 | 19.97368 | 39.07932 | 30800 ft | 504 kts | 187° |
| 2026-04-18 03:10 | 19.90362 | 39.07755 | 30792 ft | 504 kts | 187° |
| 2026-04-18 03:10 | 19.83352 | 39.07578 | 30797 ft | 504 kts | 187° |
| 2026-04-18 03:11 | 19.76346 | 39.07401 | 30801 ft | 504 kts | 187° |
| 2026-04-18 03:11 | 19.69321 | 39.07224 | 30797 ft | 504 kts | 187° |
| 2026-04-18 03:12 | 19.62327 | 39.07047 | 30797 ft | 504 kts | 187° |
| 2026-04-18 03:12 | 19.55287 | 39.06870 | 30795 ft | 504 kts | 187° |
| 2026-04-18 03:13 | 19.48309 | 39.06695 | 30794 ft | 504 kts | 187° |
| 2026-04-18 03:13 | 19.41280 | 39.06519 | 30794 ft | 504 kts | 187° |
| 2026-04-18 03:14 | 19.34262 | 39.06342 | 30787 ft | 504 kts | 187° |
| 2026-04-18 03:14 | 19.27239 | 39.06166 | 30793 ft | 504 kts | 187° |
| 2026-04-18 03:15 | 19.20215 | 39.05990 | 30795 ft | 505 kts | 187° |
| 2026-04-18 03:15 | 19.13191 | 39.05815 | 30791 ft | 505 kts | 187° |
| 2026-04-18 03:16 | 19.06177 | 39.05515 | 30787 ft | 504 kts | 189° |
| 2026-04-18 03:16 | 18.99215 | 39.05090 | 30789 ft | 504 kts | 189° |
| 2026-04-18 03:17 | 18.92207 | 39.04669 | 30788 ft | 504 kts | 189° |
| 2026-04-18 03:17 | 18.85200 | 39.04273 | 30778 ft | 505 kts | 188° |
| 2026-04-18 03:18 | 18.78174 | 39.03886 | 30797 ft | 506 kts | 188° |
| 2026-04-18 03:18 | 18.71134 | 39.03498 | 30780 ft | 506 kts | 188° |
| 2026-04-18 03:19 | 18.64088 | 39.03109 | 30792 ft | 507 kts | 188° |
| 2026-04-18 03:19 | 18.57041 | 39.02719 | 30784 ft | 507 kts | 188° |
| 2026-04-18 03:20 | 18.50044 | 39.02333 | 30778 ft | 507 kts | 188° |
| 2026-04-18 03:20 | 18.43002 | 39.01944 | 30779 ft | 507 kts | 188° |
| 2026-04-18 03:21 | 18.35942 | 39.01554 | 30779 ft | 507 kts | 188° |
| 2026-04-18 03:21 | 18.28898 | 39.01166 | 30783 ft | 506 kts | 188° |
| 2026-04-18 03:22 | 18.21858 | 39.00779 | 30774 ft | 506 kts | 188° |
| 2026-04-18 03:22 | 18.16012 | 39.00458 | 30785 ft | 506 kts | 188° |
| 2026-04-18 03:23 | 18.07816 | 39.00136 | 30780 ft | 507 kts | 187° |
| 2026-04-18 03:23 | 18.01909 | 38.99943 | 30779 ft | 507 kts | 187° |
| 2026-04-18 03:24 | 17.94856 | 38.99699 | 30783 ft | 506 kts | 187° |
| 2026-04-18 03:24 | 17.87857 | 38.99445 | 30784 ft | 506 kts | 187° |
| 2026-04-18 03:25 | 17.80809 | 38.99186 | 30773 ft | 506 kts | 187° |
| 2026-04-18 03:25 | 17.73772 | 38.98929 | 30782 ft | 506 kts | 187° |
| 2026-04-18 03:26 | 17.66723 | 38.98673 | 30785 ft | 506 kts | 187° |
| 2026-04-18 03:26 | 17.59680 | 38.98417 | 30786 ft | 506 kts | 187° |
| 2026-04-18 03:27 | 17.52635 | 38.98161 | 30780 ft | 506 kts | 186° |
| 2026-04-18 03:27 | 17.45595 | 38.98177 | 30778 ft | 511 kts | 175° |
| 2026-04-18 03:28 | 17.42138 | 38.99158 | 30795 ft | 519 kts | 161° |
| 2026-04-18 03:28 | 17.38940 | 39.00865 | 30793 ft | 526 kts | 149° |
| 2026-04-18 03:28 | 17.33273 | 39.05739 | 30800 ft | 529 kts | 142° |
| 2026-04-18 03:29 | 17.27657 | 39.10737 | 30793 ft | 531 kts | 142° |
| 2026-04-18 03:29 | 17.21964 | 39.15701 | 30783 ft | 532 kts | 143° |
| 2026-04-18 03:30 | 17.16257 | 39.20617 | 30783 ft | 531 kts | 143° |
| 2026-04-18 03:30 | 17.10553 | 39.25516 | 30786 ft | 530 kts | 143° |
| 2026-04-18 03:31 | 17.04865 | 39.30403 | 30788 ft | 528 kts | 143° |
| 2026-04-18 03:31 | 16.99184 | 39.35283 | 30786 ft | 528 kts | 143° |
| 2026-04-18 03:32 | 16.93512 | 39.40153 | 30785 ft | 527 kts | 143° |
| 2026-04-18 03:32 | 16.87879 | 39.44985 | 30792 ft | 527 kts | 143° |
| 2026-04-18 03:33 | 16.82205 | 39.49848 | 30783 ft | 528 kts | 143° |
| 2026-04-18 03:33 | 16.76522 | 39.54716 | 30782 ft | 528 kts | 143° |
| 2026-04-18 03:34 | 16.70844 | 39.59574 | 30787 ft | 528 kts | 143° |
| 2026-04-18 03:34 | 16.65160 | 39.64435 | 30785 ft | 529 kts | 143° |
| 2026-04-18 03:35 | 16.59463 | 39.69303 | 30785 ft | 529 kts | 143° |
| 2026-04-18 03:35 | 16.53772 | 39.74161 | 30781 ft | 529 kts | 142° |
| 2026-04-18 03:36 | 16.48081 | 39.79016 | 30785 ft | 528 kts | 143° |
| 2026-04-18 03:36 | 16.42434 | 39.83829 | 30788 ft | 528 kts | 142° |
| 2026-04-18 03:37 | 16.36744 | 39.88676 | 30788 ft | 528 kts | 142° |
| 2026-04-18 03:37 | 16.31060 | 39.93514 | 30791 ft | 527 kts | 142° |
| 2026-04-18 03:38 | 16.25376 | 39.98347 | 30794 ft | 527 kts | 143° |
| 2026-04-18 03:38 | 16.19696 | 40.03174 | 30789 ft | 527 kts | 142° |
| 2026-04-18 03:39 | 16.14021 | 40.07992 | 30791 ft | 526 kts | 142° |
| 2026-04-18 03:39 | 16.08355 | 40.12800 | 30797 ft | 525 kts | 142° |
| 2026-04-18 03:40 | 16.02684 | 40.17608 | 30793 ft | 525 kts | 142° |
| 2026-04-18 03:40 | 15.97050 | 40.22380 | 30791 ft | 525 kts | 142° |
| 2026-04-18 03:41 | 15.91389 | 40.27173 | 30795 ft | 525 kts | 142° |
| 2026-04-18 03:41 | 15.85733 | 40.31957 | 30794 ft | 524 kts | 142° |
| 2026-04-18 03:42 | 15.80084 | 40.36733 | 30793 ft | 523 kts | 142° |
| 2026-04-18 03:42 | 15.74435 | 40.41504 | 30797 ft | 522 kts | 142° |
| 2026-04-18 03:43 | 15.68796 | 40.46263 | 30798 ft | 522 kts | 142° |
| 2026-04-18 03:43 | 15.63159 | 40.51018 | 30803 ft | 522 kts | 142° |
| 2026-04-18 03:44 | 15.57525 | 40.55766 | 30797 ft | 522 kts | 142° |
| 2026-04-18 03:44 | 15.51934 | 40.60474 | 30803 ft | 521 kts | 142° |
| 2026-04-18 03:45 | 15.46304 | 40.65212 | 30809 ft | 521 kts | 142° |
| 2026-04-18 03:45 | 15.40671 | 40.69950 | 30808 ft | 521 kts | 142° |
| 2026-04-18 03:46 | 15.35046 | 40.74677 | 30810 ft | 521 kts | 142° |
| 2026-04-18 03:46 | 15.29422 | 40.79400 | 30810 ft | 521 kts | 142° |
| 2026-04-18 03:47 | 15.23788 | 40.84129 | 30810 ft | 521 kts | 142° |
| 2026-04-18 03:47 | 15.18157 | 40.88850 | 30811 ft | 521 kts | 142° |
| 2026-04-18 03:48 | 15.12561 | 40.93540 | 30812 ft | 520 kts | 142° |
| 2026-04-18 03:48 | 15.06939 | 40.98250 | 30809 ft | 520 kts | 142° |
| 2026-04-18 03:49 | 15.01304 | 41.02965 | 30821 ft | 520 kts | 142° |
| 2026-04-18 03:49 | 14.95682 | 41.07658 | 30818 ft | 520 kts | 142° |
| 2026-04-18 03:50 | 14.90073 | 41.12335 | 30815 ft | 520 kts | 142° |
| 2026-04-18 03:50 | 14.84442 | 41.17030 | 30818 ft | 520 kts | 142° |
| 2026-04-18 03:51 | 14.78811 | 41.21723 | 30827 ft | 520 kts | 142° |
| 2026-04-18 03:51 | 14.73182 | 41.26412 | 30832 ft | 520 kts | 142° |
| 2026-04-18 03:52 | 14.67588 | 41.31068 | 30832 ft | 520 kts | 142° |
| 2026-04-18 03:52 | 14.61952 | 41.35755 | 30839 ft | 520 kts | 143° |
| 2026-04-18 03:53 | 14.56304 | 41.40449 | 30840 ft | 519 kts | 142° |
| 2026-04-18 03:53 | 14.50681 | 41.45119 | 30839 ft | 518 kts | 142° |
| 2026-04-18 03:54 | 14.45061 | 41.49785 | 30839 ft | 517 kts | 142° |
| 2026-04-18 03:54 | 14.39497 | 41.54399 | 30852 ft | 516 kts | 142° |
| 2026-04-18 03:55 | 14.33898 | 41.59041 | 30852 ft | 516 kts | 143° |
| 2026-04-18 03:55 | 14.28302 | 41.63676 | 30856 ft | 516 kts | 143° |
| 2026-04-18 03:56 | 14.22699 | 41.68314 | 30854 ft | 516 kts | 142° |
| 2026-04-18 03:56 | 14.17109 | 41.72939 | 30857 ft | 515 kts | 142° |
| 2026-04-18 03:57 | 14.08725 | 41.79870 | 30859 ft | 515 kts | 143° |
| 2026-04-18 03:58 | 14.03135 | 41.84486 | 30868 ft | 515 kts | 143° |
| 2026-04-18 03:58 | 13.97540 | 41.89104 | 30871 ft | 515 kts | 143° |
| 2026-04-18 03:59 | 13.91946 | 41.93719 | 30886 ft | 516 kts | 143° |
| 2026-04-18 03:59 | 13.86335 | 41.98344 | 30882 ft | 517 kts | 142° |
| 2026-04-18 04:00 | 13.80745 | 42.02950 | 30887 ft | 516 kts | 142° |
| 2026-04-18 04:00 | 13.75144 | 42.07563 | 30889 ft | 515 kts | 142° |
| 2026-04-18 04:01 | 13.69546 | 42.12170 | 30893 ft | 515 kts | 142° |
| 2026-04-18 04:01 | 13.63960 | 42.16761 | 30898 ft | 514 kts | 142° |
| 2026-04-18 04:02 | 13.58352 | 42.21332 | 30895 ft | 514 kts | 143° |
| 2026-04-18 04:02 | 13.52743 | 42.25893 | 30904 ft | 513 kts | 143° |
| 2026-04-18 04:03 | 13.47174 | 42.30423 | 30900 ft | 514 kts | 143° |
| 2026-04-18 04:03 | 13.41568 | 42.34985 | 30903 ft | 514 kts | 143° |
| 2026-04-18 04:04 | 13.35962 | 42.39545 | 30904 ft | 514 kts | 143° |
| 2026-04-18 04:04 | 13.30351 | 42.44106 | 30908 ft | 515 kts | 143° |
| 2026-04-18 04:05 | 13.24682 | 42.48708 | 30919 ft | 521 kts | 143° |
| 2026-04-18 04:05 | 13.19024 | 42.53303 | 30907 ft | 517 kts | 142° |
| 2026-04-18 04:06 | 13.13400 | 42.57867 | 30905 ft | 515 kts | 143° |
| 2026-04-18 04:06 | 13.07580 | 42.62130 | 30910 ft | 513 kts | 152° |
| 2026-04-18 04:07 | 13.01146 | 42.65228 | 30918 ft | 510 kts | 163° |
| 2026-04-18 04:07 | 12.94415 | 42.67409 | 30920 ft | 510 kts | 165° |
| 2026-04-18 04:08 | 12.87635 | 42.69573 | 30924 ft | 509 kts | 164° |
| 2026-04-18 04:08 | 12.80890 | 42.71773 | 30937 ft | 508 kts | 163° |
| 2026-04-18 04:09 | 12.74144 | 42.73993 | 30942 ft | 509 kts | 163° |
| 2026-04-18 04:09 | 12.67399 | 42.76209 | 30942 ft | 509 kts | 163° |
| 2026-04-18 04:10 | 12.60651 | 42.78424 | 30938 ft | 510 kts | 163° |
| 2026-04-18 04:10 | 12.54990 | 42.80213 | 30951 ft | 510 kts | 165° |
| 2026-04-18 04:11 | 12.48158 | 42.82192 | 30959 ft | 510 kts | 165° |
| 2026-04-18 04:11 | 12.41320 | 42.84153 | 30966 ft | 510 kts | 165° |
| 2026-04-18 04:12 | 12.34501 | 42.86137 | 30971 ft | 509 kts | 165° |
| 2026-04-18 04:12 | 12.27635 | 42.88149 | 31419 ft | 511 kts | 165° |
| 2026-04-18 04:12 | 12.24223 | 42.89151 | 31884 ft | 509 kts | 165° |
| 2026-04-18 04:13 | 12.20814 | 42.90150 | 32233 ft | 510 kts | 165° |
| 2026-04-18 04:13 | 12.17404 | 42.91150 | 32598 ft | 510 kts | 165° |
| 2026-04-18 04:13 | 12.14037 | 42.92135 | 32972 ft | 509 kts | 165° |
| 2026-04-18 04:13 | 12.10586 | 42.93144 | 33306 ft | 510 kts | 165° |
| 2026-04-18 04:14 | 12.07210 | 42.94131 | 33594 ft | 511 kts | 165° |
| 2026-04-18 04:14 | 12.03789 | 42.95131 | 33961 ft | 511 kts | 166° |
| 2026-04-18 04:14 | 12.00371 | 42.96130 | 34271 ft | 510 kts | 165° |
| 2026-04-18 04:14 | 11.96961 | 42.97127 | 34589 ft | 510 kts | 165° |
| 2026-04-18 04:15 | 11.93546 | 42.98125 | 34924 ft | 508 kts | 165° |
| 2026-04-18 04:15 | 11.90147 | 42.99119 | 35231 ft | 508 kts | 165° |
| 2026-04-18 04:15 | 11.86746 | 43.00112 | 35510 ft | 507 kts | 165° |
| 2026-04-18 04:15 | 11.83353 | 43.01102 | 35795 ft | 507 kts | 165° |
| 2026-04-18 04:16 | 11.79965 | 43.02090 | 36133 ft | 505 kts | 165° |
| 2026-04-18 04:16 | 11.76595 | 43.03074 | 36474 ft | 503 kts | 165° |
| 2026-04-18 04:16 | 11.73240 | 43.04053 | 36801 ft | 501 kts | 165° |
| 2026-04-18 04:16 | 11.69885 | 43.05031 | 36919 ft | 503 kts | 165° |
| 2026-04-18 04:17 | 11.66515 | 43.06014 | 36980 ft | 502 kts | 165° |
| 2026-04-18 04:17 | 11.59817 | 43.07967 | 36966 ft | 499 kts | 165° |
| 2026-04-18 04:18 | 11.53254 | 43.10117 | 36950 ft | 498 kts | 157° |
| 2026-04-18 04:18 | 11.47013 | 43.13152 | 36964 ft | 496 kts | 154° |
| 2026-04-18 04:19 | 11.40793 | 43.16228 | 36962 ft | 496 kts | 155° |
| 2026-04-18 04:19 | 11.34558 | 43.19255 | 36961 ft | 497 kts | 154° |
| 2026-04-18 04:20 | 11.28366 | 43.22419 | 36964 ft | 498 kts | 153° |
| 2026-04-18 04:20 | 11.22174 | 43.25631 | 36958 ft | 499 kts | 153° |
| 2026-04-18 04:21 | 11.16012 | 43.28806 | 36955 ft | 500 kts | 153° |
| 2026-04-18 04:21 | 11.09788 | 43.31996 | 36956 ft | 501 kts | 153° |
| 2026-04-18 04:22 | 11.03555 | 43.35186 | 36954 ft | 501 kts | 153° |
| 2026-04-18 04:22 | 10.97317 | 43.38377 | 36951 ft | 501 kts | 153° |
| 2026-04-18 04:23 | 10.91089 | 43.41564 | 36949 ft | 500 kts | 154° |
| 2026-04-18 04:23 | 10.84919 | 43.44719 | 36951 ft | 499 kts | 154° |
| 2026-04-18 04:24 | 10.78726 | 43.47884 | 36956 ft | 497 kts | 154° |
| 2026-04-18 04:24 | 10.72559 | 43.51035 | 36953 ft | 495 kts | 154° |
| 2026-04-18 04:25 | 10.66393 | 43.54184 | 36957 ft | 494 kts | 154° |
| 2026-04-18 04:25 | 10.60297 | 43.57296 | 36961 ft | 493 kts | 154° |
| 2026-04-18 04:26 | 10.54159 | 43.60424 | 36972 ft | 493 kts | 154° |
| 2026-04-18 04:26 | 10.47966 | 43.63434 | 36967 ft | 494 kts | 155° |
| 2026-04-18 04:27 | 10.41739 | 43.66390 | 36962 ft | 494 kts | 155° |
| 2026-04-18 04:27 | 10.35513 | 43.69358 | 36987 ft | 494 kts | 155° |
| 2026-04-18 04:28 | 10.29292 | 43.72340 | 36970 ft | 494 kts | 155° |
| 2026-04-18 04:28 | 10.23073 | 43.75327 | 36983 ft | 495 kts | 155° |
| 2026-04-18 04:29 | 10.16845 | 43.78315 | 36996 ft | 495 kts | 155° |
| 2026-04-18 04:29 | 10.10623 | 43.81298 | 37014 ft | 495 kts | 155° |
| 2026-04-18 04:30 | 10.04397 | 43.84281 | 37005 ft | 495 kts | 155° |
| 2026-04-18 04:30 | 9.98209 | 43.87245 | 37023 ft | 494 kts | 155° |
| 2026-04-18 04:31 | 9.91991 | 43.90222 | 37025 ft | 494 kts | 155° |
| 2026-04-18 04:31 | 9.85769 | 43.93200 | 37018 ft | 494 kts | 155° |
| 2026-04-18 04:32 | 9.79545 | 43.96178 | 37042 ft | 494 kts | 155° |
| 2026-04-18 04:32 | 9.73324 | 43.99152 | 37040 ft | 494 kts | 155° |
| 2026-04-18 04:33 | 9.67114 | 44.02121 | 37043 ft | 493 kts | 155° |
| 2026-04-18 04:33 | 9.60908 | 44.05088 | 37041 ft | 493 kts | 155° |
| 2026-04-18 04:34 | 9.54693 | 44.08033 | 37041 ft | 493 kts | 158° |
| 2026-04-18 04:34 | 9.48233 | 44.10153 | 37043 ft | 491 kts | 169° |
| 2026-04-18 04:35 | 9.41531 | 44.11494 | 37051 ft | 491 kts | 169° |
| 2026-04-18 04:35 | 9.34833 | 44.12826 | 37047 ft | 491 kts | 169° |
| 2026-04-18 04:36 | 9.28131 | 44.14199 | 37048 ft | 491 kts | 169° |
| 2026-04-18 04:36 | 9.21442 | 44.15586 | 37048 ft | 491 kts | 168° |
| 2026-04-18 04:37 | 9.14760 | 44.16972 | 37041 ft | 490 kts | 168° |
| 2026-04-18 04:37 | 9.08070 | 44.18357 | 37046 ft | 490 kts | 168° |
| 2026-04-18 04:38 | 9.01389 | 44.19738 | 37044 ft | 490 kts | 168° |
| 2026-04-18 04:38 | 8.94709 | 44.21119 | 37040 ft | 490 kts | 168° |
| 2026-04-18 04:39 | 8.88039 | 44.22555 | 37041 ft | 490 kts | 167° |
| 2026-04-18 04:39 | 8.81414 | 44.24158 | 37037 ft | 490 kts | 166° |
| 2026-04-18 04:40 | 8.74825 | 44.25776 | 37039 ft | 490 kts | 166° |
| 2026-04-18 04:40 | 8.68193 | 44.27383 | 37031 ft | 490 kts | 166° |
| 2026-04-18 04:41 | 8.61538 | 44.28978 | 37038 ft | 490 kts | 166° |
| 2026-04-18 04:41 | 8.54906 | 44.30565 | 37029 ft | 490 kts | 166° |
| 2026-04-18 04:42 | 8.48272 | 44.32151 | 37034 ft | 490 kts | 166° |
| 2026-04-18 04:42 | 8.41637 | 44.33739 | 37030 ft | 489 kts | 166° |
| 2026-04-18 04:43 | 8.35010 | 44.35324 | 37027 ft | 490 kts | 166° |
| 2026-04-18 04:43 | 8.28420 | 44.36900 | 37027 ft | 490 kts | 166° |
| 2026-04-18 04:44 | 8.21787 | 44.38486 | 37023 ft | 490 kts | 166° |
| 2026-04-18 04:44 | 8.15155 | 44.40071 | 37020 ft | 490 kts | 166° |
| 2026-04-18 04:45 | 8.08517 | 44.41656 | 37020 ft | 490 kts | 166° |
| 2026-04-18 04:45 | 8.01878 | 44.43241 | 37021 ft | 490 kts | 166° |
| 2026-04-18 04:46 | 7.95233 | 44.44828 | 37025 ft | 491 kts | 166° |
| 2026-04-18 04:46 | 7.88586 | 44.46414 | 37016 ft | 491 kts | 166° |
| 2026-04-18 04:47 | 7.81977 | 44.47991 | 37020 ft | 491 kts | 166° |
| 2026-04-18 04:47 | 7.75329 | 44.49576 | 37021 ft | 491 kts | 166° |
| 2026-04-18 04:48 | 7.68680 | 44.51161 | 37017 ft | 491 kts | 166° |
| 2026-04-18 04:48 | 7.62027 | 44.52747 | 37017 ft | 491 kts | 166° |
| 2026-04-18 04:49 | 7.55370 | 44.54333 | 37018 ft | 491 kts | 166° |
| 2026-04-18 04:49 | 7.48721 | 44.55917 | 37021 ft | 491 kts | 166° |
| 2026-04-18 04:50 | 7.42073 | 44.57500 | 37013 ft | 491 kts | 166° |
| 2026-04-18 04:50 | 7.35424 | 44.59082 | 37017 ft | 491 kts | 166° |
| 2026-04-18 04:51 | 7.28769 | 44.60666 | 37018 ft | 491 kts | 166° |
| 2026-04-18 04:51 | 7.22161 | 44.62238 | 37008 ft | 491 kts | 166° |
| 2026-04-18 04:52 | 7.15514 | 44.63819 | 37007 ft | 491 kts | 166° |
| 2026-04-18 04:52 | 7.08868 | 44.65399 | 37005 ft | 491 kts | 166° |
| 2026-04-18 04:53 | 7.02224 | 44.66978 | 36998 ft | 491 kts | 166° |
| 2026-04-18 04:53 | 6.95579 | 44.68557 | 37000 ft | 490 kts | 166° |
| 2026-04-18 04:54 | 6.88932 | 44.70136 | 36993 ft | 490 kts | 166° |
| 2026-04-18 04:54 | 6.82275 | 44.71717 | 36994 ft | 490 kts | 166° |
| 2026-04-18 04:55 | 6.75629 | 44.73296 | 36989 ft | 490 kts | 166° |
| 2026-04-18 04:55 | 6.69032 | 44.74864 | 36989 ft | 490 kts | 166° |
| 2026-04-18 04:56 | 6.59085 | 44.77259 | 36985 ft | 490 kts | 165° |
| 2026-04-18 04:56 | 6.52443 | 44.78862 | 36984 ft | 490 kts | 165° |
| 2026-04-18 04:57 | 6.45817 | 44.80458 | 36981 ft | 490 kts | 165° |
| 2026-04-18 04:57 | 6.39181 | 44.82055 | 36978 ft | 490 kts | 165° |
| 2026-04-18 04:58 | 6.32545 | 44.83651 | 36979 ft | 490 kts | 165° |
| 2026-04-18 04:58 | 6.25918 | 44.85245 | 36979 ft | 490 kts | 165° |
| 2026-04-18 04:59 | 6.19325 | 44.86830 | 36983 ft | 490 kts | 165° |
| 2026-04-18 04:59 | 6.12695 | 44.88424 | 36977 ft | 490 kts | 165° |
| 2026-04-18 05:00 | 6.06070 | 44.90016 | 36977 ft | 490 kts | 165° |
| 2026-04-18 05:00 | 5.99438 | 44.91610 | 36974 ft | 489 kts | 165° |
| 2026-04-18 05:01 | 5.93936 | 44.92932 | 36973 ft | 489 kts | 165° |
| 2026-04-18 05:01 | 5.87311 | 44.94523 | 36970 ft | 489 kts | 165° |
| 2026-04-18 05:02 | 5.80679 | 44.96115 | 36967 ft | 489 kts | 165° |
| 2026-04-18 05:02 | 5.74049 | 44.97707 | 36967 ft | 489 kts | 165° |
| 2026-04-18 05:03 | 5.67467 | 44.99286 | 36968 ft | 489 kts | 165° |
| 2026-04-18 05:03 | 5.60847 | 45.00875 | 36967 ft | 489 kts | 165° |
| 2026-04-18 05:04 | 5.54226 | 45.02463 | 36964 ft | 489 kts | 165° |
| 2026-04-18 05:04 | 5.47610 | 45.04050 | 36963 ft | 488 kts | 165° |
| 2026-04-18 05:05 | 5.40997 | 45.05636 | 36964 ft | 488 kts | 165° |
| 2026-04-18 05:05 | 5.34393 | 45.07218 | 36960 ft | 488 kts | 165° |
| 2026-04-18 05:06 | 5.27791 | 45.08801 | 36967 ft | 487 kts | 165° |
| 2026-04-18 05:06 | 5.21225 | 45.10375 | 36966 ft | 488 kts | 165° |
| 2026-04-18 05:07 | 5.14617 | 45.11958 | 36958 ft | 488 kts | 165° |
| 2026-04-18 05:07 | 5.07989 | 45.13399 | 36961 ft | 489 kts | 170° |
| 2026-04-18 05:08 | 5.01196 | 45.13884 | 36962 ft | 490 kts | 176° |
| 2026-04-18 05:08 | 4.94381 | 45.14177 | 36961 ft | 490 kts | 176° |
| 2026-04-18 05:09 | 4.87564 | 45.14493 | 36955 ft | 490 kts | 175° |
| 2026-04-18 05:09 | 4.80734 | 45.14838 | 36956 ft | 491 kts | 175° |
| 2026-04-18 05:10 | 4.73907 | 45.15194 | 36955 ft | 491 kts | 175° |
| 2026-04-18 05:10 | 4.67127 | 45.15547 | 36958 ft | 491 kts | 175° |
| 2026-04-18 05:11 | 4.60299 | 45.15901 | 36954 ft | 491 kts | 175° |
| 2026-04-18 05:11 | 4.53475 | 45.16255 | 36954 ft | 491 kts | 175° |
| 2026-04-18 05:12 | 4.46650 | 45.16608 | 36954 ft | 491 kts | 175° |
| 2026-04-18 05:12 | 4.39816 | 45.16961 | 36952 ft | 491 kts | 175° |
| 2026-04-18 05:13 | 4.32982 | 45.17315 | 36952 ft | 491 kts | 175° |
| 2026-04-18 05:13 | 4.26154 | 45.17668 | 36957 ft | 491 kts | 175° |
| 2026-04-18 05:14 | 4.19325 | 45.18021 | 36954 ft | 491 kts | 175° |
| 2026-04-18 05:14 | 4.12495 | 45.18374 | 36954 ft | 491 kts | 175° |
| 2026-04-18 05:15 | 4.05710 | 45.18725 | 36957 ft | 491 kts | 175° |
| 2026-04-18 05:15 | 3.98879 | 45.19078 | 36955 ft | 491 kts | 175° |
| 2026-04-18 05:16 | 3.92044 | 45.19431 | 36960 ft | 492 kts | 175° |
| 2026-04-18 05:16 | 3.85200 | 45.19785 | 36958 ft | 492 kts | 175° |
| 2026-04-18 05:17 | 3.78368 | 45.20138 | 36955 ft | 492 kts | 176° |
| 2026-04-18 05:17 | 3.71527 | 45.20491 | 36953 ft | 492 kts | 176° |
| 2026-04-18 05:18 | 3.64678 | 45.20845 | 36957 ft | 492 kts | 176° |
| 2026-04-18 05:18 | 3.57836 | 45.21198 | 36958 ft | 492 kts | 176° |
| 2026-04-18 05:19 | 3.51001 | 45.21551 | 36955 ft | 492 kts | 176° |
| 2026-04-18 05:19 | 3.44158 | 45.21904 | 36949 ft | 492 kts | 176° |
| 2026-04-18 05:20 | 3.37313 | 45.22258 | 36955 ft | 492 kts | 176° |
| 2026-04-18 05:20 | 3.30513 | 45.22608 | 36950 ft | 492 kts | 176° |
| 2026-04-18 05:21 | 3.23683 | 45.22961 | 36951 ft | 492 kts | 176° |
| 2026-04-18 05:21 | 3.16852 | 45.23313 | 36951 ft | 492 kts | 176° |
| 2026-04-18 05:22 | 3.10015 | 45.23666 | 36951 ft | 492 kts | 176° |
| 2026-04-18 05:22 | 3.03179 | 45.24019 | 36951 ft | 492 kts | 176° |
| 2026-04-18 05:23 | 2.96338 | 45.24371 | 36949 ft | 492 kts | 176° |
| 2026-04-18 05:23 | 2.89506 | 45.24724 | 36948 ft | 492 kts | 176° |
| 2026-04-18 05:24 | 2.82658 | 45.25077 | 36948 ft | 492 kts | 176° |
| 2026-04-18 05:24 | 2.75820 | 45.25429 | 36948 ft | 492 kts | 176° |
| 2026-04-18 05:25 | 2.69011 | 45.25780 | 36950 ft | 493 kts | 176° |
| 2026-04-18 05:25 | 2.62166 | 45.26133 | 36951 ft | 493 kts | 176° |
| 2026-04-18 05:26 | 2.55308 | 45.26487 | 36947 ft | 493 kts | 176° |
| 2026-04-18 05:26 | 2.48452 | 45.26840 | 36946 ft | 493 kts | 176° |
| 2026-04-18 05:27 | 2.41596 | 45.27193 | 36948 ft | 493 kts | 176° |
| 2026-04-18 05:27 | 2.34748 | 45.27546 | 36949 ft | 493 kts | 176° |
| 2026-04-18 05:28 | 2.27893 | 45.27899 | 36945 ft | 493 kts | 176° |
| 2026-04-18 05:28 | 2.21085 | 45.28250 | 36945 ft | 493 kts | 176° |
| 2026-04-18 05:29 | 2.14227 | 45.28603 | 36943 ft | 493 kts | 176° |
| 2026-04-18 05:29 | 2.07378 | 45.28956 | 36939 ft | 493 kts | 176° |
| 2026-04-18 05:30 | 2.00605 | 45.29861 | 36942 ft | 491 kts | 165° |
| 2026-04-18 05:30 | 1.94132 | 45.32005 | 36940 ft | 489 kts | 156° |
| 2026-04-18 05:31 | 1.87889 | 45.34728 | 36942 ft | 490 kts | 155° |
| 2026-04-18 05:31 | 1.81643 | 45.37472 | 36939 ft | 490 kts | 155° |
| 2026-04-18 05:32 | 1.75427 | 45.40166 | 36936 ft | 490 kts | 155° |
| 2026-04-18 05:32 | 1.69159 | 45.42862 | 36936 ft | 491 kts | 156° |
| 2026-04-18 05:33 | 1.62882 | 45.45558 | 36934 ft | 491 kts | 156° |
| 2026-04-18 05:33 | 1.56605 | 45.48254 | 36934 ft | 491 kts | 156° |
| 2026-04-18 05:34 | 1.50319 | 45.50956 | 36934 ft | 491 kts | 156° |
| 2026-04-18 05:34 | 1.44034 | 45.53657 | 36934 ft | 491 kts | 156° |
| 2026-04-18 05:35 | 1.37796 | 45.56338 | 36934 ft | 491 kts | 156° |
| 2026-04-18 05:35 | 1.31521 | 45.59035 | 36935 ft | 491 kts | 156° |
| 2026-04-18 05:36 | 1.25245 | 45.61732 | 36934 ft | 491 kts | 156° |
| 2026-04-18 05:36 | 1.18964 | 45.64431 | 36934 ft | 491 kts | 156° |
| 2026-04-18 05:37 | 1.12691 | 45.67127 | 36934 ft | 490 kts | 156° |
| 2026-04-18 05:37 | 1.06416 | 45.69823 | 36934 ft | 490 kts | 156° |
| 2026-04-18 05:38 | 1.00187 | 45.72499 | 36934 ft | 490 kts | 156° |
| 2026-04-18 05:38 | 0.93921 | 45.75192 | 36935 ft | 490 kts | 156° |
| 2026-04-18 05:39 | 0.87639 | 45.77890 | 36936 ft | 490 kts | 156° |
| 2026-04-18 05:39 | 0.81374 | 45.80582 | 36938 ft | 491 kts | 156° |
| 2026-04-18 05:40 | 0.75087 | 45.83283 | 36935 ft | 491 kts | 156° |
| 2026-04-18 05:40 | 0.68807 | 45.85981 | 36935 ft | 491 kts | 156° |
| 2026-04-18 05:41 | 0.62522 | 45.88682 | 36937 ft | 492 kts | 156° |
| 2026-04-18 05:41 | 0.56271 | 45.91367 | 36937 ft | 492 kts | 156° |
| 2026-04-18 05:42 | 0.49989 | 45.94095 | 36935 ft | 492 kts | 156° |
| 2026-04-18 05:42 | 0.43725 | 45.96848 | 36934 ft | 492 kts | 155° |
| 2026-04-18 05:43 | 0.37448 | 45.99605 | 36937 ft | 492 kts | 155° |
| 2026-04-18 05:43 | 0.31179 | 46.02354 | 36937 ft | 492 kts | 155° |
| 2026-04-18 05:44 | 0.24893 | 46.05108 | 36934 ft | 493 kts | 156° |
| 2026-04-18 05:44 | 0.18608 | 46.07862 | 36934 ft | 493 kts | 156° |
| 2026-04-18 05:45 | 0.12361 | 46.10599 | 36937 ft | 493 kts | 156° |
| 2026-04-18 05:45 | 0.06083 | 46.13350 | 36937 ft | 493 kts | 156° |
| 2026-04-18 05:46 | -0.00208 | 46.16107 | 36934 ft | 493 kts | 156° |
| 2026-04-18 05:46 | -0.06486 | 46.18858 | 36933 ft | 493 kts | 156° |
| 2026-04-18 05:47 | -0.12769 | 46.21612 | 36938 ft | 493 kts | 156° |
| 2026-04-18 05:47 | -0.19022 | 46.24352 | 36937 ft | 493 kts | 156° |
| 2026-04-18 05:48 | -0.25337 | 46.27063 | 36935 ft | 493 kts | 156° |
| 2026-04-18 05:48 | -0.31652 | 46.29736 | 36933 ft | 493 kts | 156° |
| 2026-04-18 05:49 | -0.37979 | 46.32420 | 36938 ft | 494 kts | 156° |
| 2026-04-18 05:49 | -0.43236 | 46.34656 | 36937 ft | 494 kts | 156° |
| 2026-04-18 05:50 | -0.50591 | 46.37788 | 36934 ft | 494 kts | 156° |
| 2026-04-18 05:50 | -0.55894 | 46.40047 | 36934 ft | 494 kts | 156° |
| 2026-04-18 05:51 | -0.62185 | 46.42726 | 36937 ft | 495 kts | 156° |
| 2026-04-18 05:51 | -0.68520 | 46.45423 | 36938 ft | 495 kts | 156° |
| 2026-04-18 05:52 | -0.74860 | 46.48123 | 36937 ft | 495 kts | 156° |
| 2026-04-18 05:52 | -0.81212 | 46.50829 | 36937 ft | 496 kts | 156° |
| 2026-04-18 05:53 | -0.87562 | 46.53533 | 36935 ft | 496 kts | 157° |
| 2026-04-18 05:53 | -0.93911 | 46.56237 | 36938 ft | 496 kts | 157° |
| 2026-04-18 05:54 | -1.00268 | 46.58945 | 36936 ft | 496 kts | 157° |
| 2026-04-18 05:54 | -1.06619 | 46.61651 | 36938 ft | 496 kts | 157° |
| 2026-04-18 05:55 | -1.12981 | 46.64361 | 36938 ft | 497 kts | 157° |
| 2026-04-18 05:55 | -1.19299 | 46.67054 | 36941 ft | 497 kts | 157° |
| 2026-04-18 05:56 | -1.25660 | 46.69767 | 36937 ft | 497 kts | 157° |
| 2026-04-18 05:56 | -1.32029 | 46.72485 | 36937 ft | 497 kts | 157° |
| 2026-04-18 05:57 | -1.41579 | 46.76561 | 36939 ft | 497 kts | 157° |
| 2026-04-18 05:58 | -1.47951 | 46.79281 | 36937 ft | 498 kts | 157° |
| 2026-04-18 05:58 | -1.54322 | 46.82000 | 36938 ft | 498 kts | 157° |
| 2026-04-18 05:59 | -1.60649 | 46.84701 | 36940 ft | 498 kts | 157° |
| 2026-04-18 05:59 | -1.67023 | 46.87421 | 36940 ft | 498 kts | 157° |
| 2026-04-18 06:00 | -1.73399 | 46.90143 | 36937 ft | 498 kts | 157° |
| 2026-04-18 06:00 | -1.79778 | 46.92867 | 36943 ft | 498 kts | 157° |
| 2026-04-18 06:01 | -1.86158 | 46.95591 | 36943 ft | 498 kts | 157° |
| 2026-04-18 06:01 | -1.92537 | 46.98315 | 36940 ft | 498 kts | 157° |
| 2026-04-18 06:02 | -1.98915 | 47.01039 | 36941 ft | 498 kts | 157° |
| 2026-04-18 06:02 | -2.05251 | 47.03744 | 36942 ft | 498 kts | 157° |
| 2026-04-18 06:03 | -2.11617 | 47.06463 | 36942 ft | 498 kts | 157° |
| 2026-04-18 06:03 | -2.17991 | 47.09186 | 36945 ft | 497 kts | 157° |
| 2026-04-18 06:04 | -2.24363 | 47.11908 | 36946 ft | 497 kts | 157° |
| 2026-04-18 06:04 | -2.30733 | 47.14629 | 36945 ft | 497 kts | 157° |
| 2026-04-18 06:05 | -2.37056 | 47.17331 | 36947 ft | 497 kts | 157° |
| 2026-04-18 06:05 | -2.43423 | 47.20052 | 36948 ft | 497 kts | 157° |
| 2026-04-18 06:06 | -2.49796 | 47.22775 | 36948 ft | 498 kts | 157° |
| 2026-04-18 06:06 | -2.56162 | 47.25496 | 36948 ft | 498 kts | 157° |
| 2026-04-18 06:07 | -2.62542 | 47.28224 | 36952 ft | 498 kts | 157° |
| 2026-04-18 06:07 | -2.68913 | 47.30947 | 36951 ft | 498 kts | 157° |
| 2026-04-18 06:08 | -2.75250 | 47.33657 | 36948 ft | 498 kts | 157° |
| 2026-04-18 06:08 | -2.81626 | 47.36383 | 36952 ft | 498 kts | 157° |
| 2026-04-18 06:09 | -2.88016 | 47.39116 | 36946 ft | 498 kts | 157° |
| 2026-04-18 06:09 | -2.94393 | 47.41844 | 36952 ft | 498 kts | 157° |
| 2026-04-18 06:10 | -3.00775 | 47.44575 | 36953 ft | 498 kts | 157° |
| 2026-04-18 06:10 | -3.07163 | 47.47307 | 36953 ft | 498 kts | 157° |
| 2026-04-18 06:11 | -3.13540 | 47.50035 | 36950 ft | 499 kts | 158° |
| 2026-04-18 06:11 | -3.19877 | 47.52748 | 36954 ft | 499 kts | 158° |
| 2026-04-18 06:12 | -3.26271 | 47.55486 | 36954 ft | 499 kts | 158° |
| 2026-04-18 06:12 | -3.32648 | 47.58217 | 36954 ft | 499 kts | 158° |
| 2026-04-18 06:13 | -3.39038 | 47.60954 | 36956 ft | 499 kts | 158° |
| 2026-04-18 06:13 | -3.45421 | 47.63688 | 36956 ft | 499 kts | 158° |
| 2026-04-18 06:14 | -3.51804 | 47.66423 | 36954 ft | 499 kts | 158° |
| 2026-04-18 06:14 | -3.58191 | 47.69160 | 36953 ft | 499 kts | 158° |
| 2026-04-18 06:15 | -3.64533 | 47.71877 | 36956 ft | 499 kts | 158° |
| 2026-04-18 06:15 | -3.70914 | 47.74613 | 36957 ft | 499 kts | 158° |
| 2026-04-18 06:16 | -3.77299 | 47.77350 | 36956 ft | 499 kts | 158° |
| 2026-04-18 06:16 | -3.83679 | 47.80085 | 36956 ft | 498 kts | 158° |
| 2026-04-18 06:17 | -3.90054 | 47.82819 | 36953 ft | 498 kts | 158° |
| 2026-04-18 06:17 | -3.96435 | 47.85556 | 36959 ft | 499 kts | 158° |
| 2026-04-18 06:18 | -4.02820 | 47.88295 | 36955 ft | 499 kts | 158° |
| 2026-04-18 06:18 | -4.09202 | 47.91034 | 36957 ft | 499 kts | 158° |
| 2026-04-18 06:19 | -4.15593 | 47.93777 | 36955 ft | 499 kts | 158° |
| 2026-04-18 06:19 | -4.21938 | 47.96501 | 36954 ft | 499 kts | 158° |
| 2026-04-18 06:20 | -4.28338 | 47.99243 | 36957 ft | 499 kts | 158° |
| 2026-04-18 06:20 | -4.34727 | 48.01979 | 36950 ft | 499 kts | 158° |
| 2026-04-18 06:21 | -4.41124 | 48.04719 | 36957 ft | 499 kts | 158° |
| 2026-04-18 06:21 | -4.47507 | 48.07455 | 36956 ft | 499 kts | 158° |
| 2026-04-18 06:22 | -4.53850 | 48.10175 | 36952 ft | 499 kts | 158° |
| 2026-04-18 06:22 | -4.60238 | 48.12915 | 36954 ft | 499 kts | 158° |
| 2026-04-18 06:23 | -4.66619 | 48.15652 | 36957 ft | 499 kts | 158° |
| 2026-04-18 06:23 | -4.73001 | 48.18390 | 36956 ft | 499 kts | 158° |
| 2026-04-18 06:24 | -4.79386 | 48.21130 | 36956 ft | 499 kts | 158° |
| 2026-04-18 06:24 | -4.85775 | 48.23872 | 36954 ft | 499 kts | 158° |
| 2026-04-18 06:25 | -4.92153 | 48.26610 | 36957 ft | 499 kts | 158° |
| 2026-04-18 06:25 | -4.98541 | 48.29353 | 36957 ft | 499 kts | 158° |
| 2026-04-18 06:26 | -5.04930 | 48.32097 | 36954 ft | 499 kts | 158° |
| 2026-04-18 06:26 | -5.11321 | 48.34843 | 36954 ft | 500 kts | 158° |
| 2026-04-18 06:27 | -5.17676 | 48.37573 | 36954 ft | 500 kts | 158° |
| 2026-04-18 06:27 | -5.24065 | 48.40319 | 36956 ft | 500 kts | 158° |
| 2026-04-18 06:28 | -5.30456 | 48.43066 | 36955 ft | 500 kts | 158° |
| 2026-04-18 06:28 | -5.36847 | 48.45814 | 36960 ft | 499 kts | 158° |
| 2026-04-18 06:29 | -5.43243 | 48.48564 | 36957 ft | 499 kts | 158° |
| 2026-04-18 06:29 | -5.49637 | 48.51315 | 36956 ft | 499 kts | 158° |
| 2026-04-18 06:30 | -5.56023 | 48.54063 | 36960 ft | 499 kts | 158° |
| 2026-04-18 06:30 | -5.62368 | 48.56793 | 36959 ft | 499 kts | 158° |
| 2026-04-18 06:31 | -5.68756 | 48.59543 | 36960 ft | 499 kts | 158° |
| 2026-04-18 06:31 | -5.75146 | 48.62294 | 36956 ft | 500 kts | 158° |
| 2026-04-18 06:32 | -5.81539 | 48.65047 | 36962 ft | 500 kts | 158° |
| 2026-04-18 06:32 | -5.87940 | 48.67804 | 36959 ft | 500 kts | 158° |
| 2026-04-18 06:33 | -5.94347 | 48.70565 | 36961 ft | 501 kts | 158° |
| 2026-04-18 06:33 | -6.00759 | 48.73329 | 36967 ft | 501 kts | 158° |
| 2026-04-18 06:34 | -6.07176 | 48.76095 | 36963 ft | 501 kts | 159° |
| 2026-04-18 06:34 | -6.13540 | 48.78839 | 36962 ft | 501 kts | 159° |
| 2026-04-18 06:35 | -6.19943 | 48.81601 | 36957 ft | 500 kts | 159° |
| 2026-04-18 06:35 | -6.26344 | 48.84363 | 36961 ft | 500 kts | 159° |
| 2026-04-18 06:36 | -6.32743 | 48.87125 | 36973 ft | 499 kts | 159° |
| 2026-04-18 06:36 | -6.39131 | 48.89882 | 36962 ft | 499 kts | 159° |
| 2026-04-18 06:37 | -6.45452 | 48.92611 | 36963 ft | 498 kts | 159° |
| 2026-04-18 06:37 | -6.51854 | 48.95376 | 36963 ft | 497 kts | 159° |
| 2026-04-18 06:38 | -6.58174 | 48.98107 | 36961 ft | 496 kts | 159° |
| 2026-04-18 06:38 | -6.64520 | 49.00850 | 36968 ft | 496 kts | 159° |
| 2026-04-18 06:39 | -6.69794 | 49.03129 | 36965 ft | 496 kts | 159° |
| 2026-04-18 06:39 | -6.76133 | 49.05870 | 36966 ft | 496 kts | 159° |
| 2026-04-18 06:40 | -6.82479 | 49.08615 | 36961 ft | 496 kts | 159° |
| 2026-04-18 06:40 | -6.88829 | 49.11363 | 36963 ft | 496 kts | 159° |
| 2026-04-18 06:41 | -6.95176 | 49.14110 | 36968 ft | 497 kts | 160° |
| 2026-04-18 06:41 | -7.01480 | 49.16839 | 36964 ft | 497 kts | 160° |
| 2026-04-18 06:42 | -7.07838 | 49.19587 | 36966 ft | 498 kts | 160° |
| 2026-04-18 06:42 | -7.14222 | 49.22348 | 36964 ft | 498 kts | 160° |
| 2026-04-18 06:43 | -7.20595 | 49.25106 | 36963 ft | 498 kts | 160° |
| 2026-04-18 06:43 | -7.26973 | 49.27868 | 36964 ft | 499 kts | 160° |
| 2026-04-18 06:44 | -7.33368 | 49.30637 | 36965 ft | 500 kts | 160° |
| 2026-04-18 06:44 | -7.39778 | 49.33415 | 36967 ft | 501 kts | 160° |
| 2026-04-18 06:45 | -7.46148 | 49.36175 | 36965 ft | 501 kts | 160° |
| 2026-04-18 06:45 | -7.52568 | 49.38960 | 36958 ft | 502 kts | 160° |
| 2026-04-18 06:46 | -7.58995 | 49.41747 | 36972 ft | 502 kts | 160° |
| 2026-04-18 06:46 | -7.65421 | 49.44534 | 36968 ft | 503 kts | 160° |
| 2026-04-18 06:47 | -7.71824 | 49.47313 | 36964 ft | 504 kts | 160° |
| 2026-04-18 06:47 | -7.78304 | 49.50126 | 36968 ft | 504 kts | 160° |
| 2026-04-18 06:48 | -7.84745 | 49.52923 | 36964 ft | 504 kts | 160° |
| 2026-04-18 06:48 | -7.91143 | 49.55703 | 36965 ft | 504 kts | 160° |
| 2026-04-18 06:49 | -7.97634 | 49.58523 | 36967 ft | 504 kts | 160° |
| 2026-04-18 06:49 | -8.04076 | 49.61324 | 36967 ft | 504 kts | 160° |
| 2026-04-18 06:50 | -8.10481 | 49.64109 | 36973 ft | 504 kts | 160° |
| 2026-04-18 06:50 | -8.16929 | 49.66914 | 36967 ft | 504 kts | 160° |
| 2026-04-18 06:51 | -8.23370 | 49.69717 | 36962 ft | 504 kts | 160° |
| 2026-04-18 06:51 | -8.29800 | 49.72516 | 36968 ft | 503 kts | 160° |
| 2026-04-18 06:52 | -8.36233 | 49.75317 | 36972 ft | 503 kts | 160° |
| 2026-04-18 06:52 | -8.42668 | 49.78120 | 36973 ft | 503 kts | 160° |
| 2026-04-18 06:53 | -8.49100 | 49.80923 | 36971 ft | 503 kts | 160° |
| 2026-04-18 06:53 | -8.55527 | 49.83725 | 36969 ft | 503 kts | 160° |
| 2026-04-18 06:54 | -8.61919 | 49.86512 | 36973 ft | 504 kts | 160° |
| 2026-04-18 06:54 | -8.68401 | 49.89341 | 36973 ft | 504 kts | 160° |
| 2026-04-18 06:55 | -8.74791 | 49.92129 | 36977 ft | 504 kts | 160° |
| 2026-04-18 06:55 | -8.81230 | 49.94940 | 36972 ft | 504 kts | 160° |
| 2026-04-18 06:56 | -8.87658 | 49.97748 | 36969 ft | 503 kts | 160° |
| 2026-04-18 06:56 | -8.94084 | 50.00556 | 36975 ft | 503 kts | 160° |
| 2026-04-18 06:57 | -9.00508 | 50.03364 | 36982 ft | 503 kts | 160° |
| 2026-04-18 06:57 | -9.10140 | 50.07575 | 36976 ft | 503 kts | 160° |
| 2026-04-18 06:58 | -9.16568 | 50.10388 | 36972 ft | 503 kts | 160° |
| 2026-04-18 06:58 | -9.22988 | 50.13198 | 36975 ft | 503 kts | 160° |
| 2026-04-18 06:59 | -9.29409 | 50.16010 | 36974 ft | 503 kts | 160° |
| 2026-04-18 06:59 | -9.35834 | 50.18824 | 36976 ft | 503 kts | 160° |
| 2026-04-18 07:00 | -9.42277 | 50.21647 | 36975 ft | 504 kts | 160° |
| 2026-04-18 07:00 | -9.48670 | 50.24450 | 36982 ft | 505 kts | 160° |
| 2026-04-18 07:01 | -9.55125 | 50.27281 | 36983 ft | 505 kts | 160° |
| 2026-04-18 07:01 | -9.61592 | 50.30119 | 36987 ft | 506 kts | 161° |
| 2026-04-18 07:02 | -9.68068 | 50.32962 | 36974 ft | 507 kts | 161° |
| 2026-04-18 07:02 | -9.74553 | 50.35810 | 36977 ft | 508 kts | 161° |
| 2026-04-18 07:03 | -9.81039 | 50.38659 | 36976 ft | 508 kts | 161° |
| 2026-04-18 07:03 | -9.87535 | 50.41515 | 36977 ft | 508 kts | 161° |
| 2026-04-18 07:04 | -9.93980 | 50.44350 | 36984 ft | 509 kts | 161° |
| 2026-04-18 07:04 | -10.00475 | 50.47207 | 36986 ft | 508 kts | 161° |
| 2026-04-18 07:05 | -10.06970 | 50.50063 | 36976 ft | 508 kts | 161° |
| 2026-04-18 07:05 | -10.13473 | 50.52924 | 36980 ft | 508 kts | 161° |
| 2026-04-18 07:06 | -10.19959 | 50.55779 | 36978 ft | 508 kts | 161° |
| 2026-04-18 07:06 | -10.26448 | 50.58637 | 36970 ft | 508 kts | 161° |
| 2026-04-18 07:07 | -10.32895 | 50.61478 | 36979 ft | 508 kts | 161° |
| 2026-04-18 07:07 | -10.39384 | 50.64340 | 36977 ft | 508 kts | 161° |
| 2026-04-18 07:08 | -10.45867 | 50.67199 | 36978 ft | 508 kts | 161° |
| 2026-04-18 07:08 | -10.52361 | 50.70065 | 36989 ft | 508 kts | 161° |
| 2026-04-18 07:09 | -10.58854 | 50.72931 | 36979 ft | 509 kts | 161° |
| 2026-04-18 07:09 | -10.65352 | 50.75801 | 36984 ft | 509 kts | 161° |
| 2026-04-18 07:10 | -10.71815 | 50.78657 | 36983 ft | 510 kts | 161° |
| 2026-04-18 07:10 | -10.78322 | 50.81534 | 36983 ft | 510 kts | 161° |
| 2026-04-18 07:11 | -10.84835 | 50.84415 | 36989 ft | 510 kts | 161° |
| 2026-04-18 07:11 | -10.91352 | 50.87299 | 36983 ft | 511 kts | 161° |
| 2026-04-18 07:12 | -10.97866 | 50.90183 | 36978 ft | 511 kts | 161° |
| 2026-04-18 07:12 | -11.04391 | 50.93074 | 36980 ft | 511 kts | 161° |
| 2026-04-18 07:13 | -11.10913 | 50.95965 | 36980 ft | 511 kts | 161° |
| 2026-04-18 07:13 | -11.17434 | 50.98855 | 36991 ft | 511 kts | 160° |
| 2026-04-18 07:14 | -11.23960 | 51.01751 | 36980 ft | 511 kts | 160° |
| 2026-04-18 07:14 | -11.30443 | 51.04628 | 36980 ft | 511 kts | 160° |
| 2026-04-18 07:15 | -11.36964 | 51.07524 | 36983 ft | 511 kts | 160° |
| 2026-04-18 07:15 | -11.43485 | 51.10421 | 36982 ft | 511 kts | 160° |
| 2026-04-18 07:16 | -11.50014 | 51.13324 | 36981 ft | 511 kts | 160° |
| 2026-04-18 07:16 | -11.56531 | 51.16222 | 36979 ft | 511 kts | 160° |
| 2026-04-18 07:17 | -11.63051 | 51.19123 | 36984 ft | 511 kts | 160° |
| 2026-04-18 07:17 | -11.69524 | 51.22005 | 36985 ft | 511 kts | 160° |
| 2026-04-18 07:18 | -11.76036 | 51.24905 | 36994 ft | 511 kts | 160° |
| 2026-04-18 07:18 | -11.82553 | 51.27810 | 36983 ft | 510 kts | 160° |
| 2026-04-18 07:19 | -11.89061 | 51.30712 | 36981 ft | 510 kts | 160° |
| 2026-04-18 07:19 | -11.95560 | 51.33612 | 36988 ft | 509 kts | 160° |
| 2026-04-18 07:20 | -12.02060 | 51.36513 | 36980 ft | 509 kts | 160° |
| 2026-04-18 07:20 | -12.08551 | 51.39413 | 36989 ft | 509 kts | 160° |
| 2026-04-18 07:21 | -12.15045 | 51.42314 | 36980 ft | 509 kts | 160° |
| 2026-04-18 07:21 | -12.21545 | 51.45218 | 36983 ft | 509 kts | 160° |
| 2026-04-18 07:22 | -12.28035 | 51.48120 | 36980 ft | 509 kts | 160° |
| 2026-04-18 07:22 | -12.34475 | 51.51002 | 36985 ft | 509 kts | 160° |
| 2026-04-18 07:23 | -12.40962 | 51.53908 | 36985 ft | 509 kts | 160° |
| 2026-04-18 07:23 | -12.47450 | 51.56814 | 36984 ft | 509 kts | 160° |
| 2026-04-18 07:24 | -12.53933 | 51.59721 | 36982 ft | 509 kts | 160° |
| 2026-04-18 07:24 | -12.60431 | 51.62635 | 36978 ft | 509 kts | 160° |
| 2026-04-18 07:25 | -12.66914 | 51.65545 | 36977 ft | 509 kts | 160° |
| 2026-04-18 07:25 | -12.73394 | 51.68455 | 36987 ft | 509 kts | 160° |
| 2026-04-18 07:26 | -12.79839 | 51.71350 | 36978 ft | 509 kts | 160° |
| 2026-04-18 07:26 | -12.86330 | 51.74269 | 36984 ft | 508 kts | 160° |
| 2026-04-18 07:27 | -12.92810 | 51.77183 | 36979 ft | 508 kts | 160° |
| 2026-04-18 07:27 | -12.98193 | 51.79606 | 36988 ft | 508 kts | 160° |
| 2026-04-18 07:28 | -13.04677 | 51.82526 | 36990 ft | 508 kts | 160° |
| 2026-04-18 07:28 | -13.11154 | 51.85444 | 36986 ft | 508 kts | 160° |
| 2026-04-18 07:29 | -13.17630 | 51.88363 | 36983 ft | 508 kts | 160° |
| 2026-04-18 07:29 | -13.24103 | 51.91283 | 36984 ft | 508 kts | 160° |
| 2026-04-18 07:30 | -13.30578 | 51.94206 | 36996 ft | 507 kts | 160° |
| 2026-04-18 07:30 | -13.36996 | 51.97105 | 36975 ft | 507 kts | 160° |
| 2026-04-18 07:31 | -13.43444 | 52.00018 | 36977 ft | 506 kts | 160° |
| 2026-04-18 07:31 | -13.49901 | 52.02937 | 36987 ft | 506 kts | 160° |
| 2026-04-18 07:32 | -13.56340 | 52.05850 | 36992 ft | 506 kts | 160° |
| 2026-04-18 07:32 | -13.62780 | 52.08765 | 36984 ft | 505 kts | 160° |
| 2026-04-18 07:33 | -13.69217 | 52.11682 | 36983 ft | 505 kts | 160° |
| 2026-04-18 07:33 | -13.75656 | 52.14601 | 36982 ft | 505 kts | 160° |
| 2026-04-18 07:34 | -13.82048 | 52.17501 | 36981 ft | 505 kts | 160° |
| 2026-04-18 07:34 | -13.88479 | 52.20420 | 36981 ft | 505 kts | 160° |
| 2026-04-18 07:35 | -13.94918 | 52.23344 | 36982 ft | 506 kts | 160° |
| 2026-04-18 07:35 | -14.01366 | 52.26275 | 36984 ft | 506 kts | 160° |
| 2026-04-18 07:36 | -14.07820 | 52.29209 | 36986 ft | 507 kts | 160° |
| 2026-04-18 07:36 | -14.14275 | 52.32147 | 36987 ft | 507 kts | 160° |
| 2026-04-18 07:37 | -14.20706 | 52.35075 | 36983 ft | 508 kts | 160° |
| 2026-04-18 07:37 | -14.27175 | 52.38023 | 36987 ft | 508 kts | 160° |
| 2026-04-18 07:38 | -14.33632 | 52.40966 | 36983 ft | 508 kts | 160° |
| 2026-04-18 07:38 | -14.40100 | 52.43917 | 36985 ft | 507 kts | 160° |
| 2026-04-18 07:39 | -14.46552 | 52.46862 | 36983 ft | 507 kts | 160° |
| 2026-04-18 07:39 | -14.53004 | 52.49809 | 36988 ft | 507 kts | 160° |
| 2026-04-18 07:40 | -14.59441 | 52.52751 | 36991 ft | 506 kts | 160° |
| 2026-04-18 07:40 | -14.65893 | 52.55701 | 36988 ft | 506 kts | 160° |
| 2026-04-18 07:41 | -14.72332 | 52.58648 | 36990 ft | 506 kts | 160° |
| 2026-04-18 07:41 | -14.78740 | 52.61582 | 36989 ft | 506 kts | 160° |
| 2026-04-18 07:42 | -14.85191 | 52.64539 | 37003 ft | 506 kts | 160° |
| 2026-04-18 07:42 | -14.91620 | 52.67487 | 36988 ft | 506 kts | 160° |
| 2026-04-18 07:43 | -14.98059 | 52.70441 | 37004 ft | 505 kts | 160° |
| 2026-04-18 07:43 | -15.04489 | 52.73393 | 36987 ft | 505 kts | 160° |
| 2026-04-18 07:44 | -15.10904 | 52.76341 | 36992 ft | 504 kts | 160° |
| 2026-04-18 07:44 | -15.17310 | 52.79286 | 36999 ft | 503 kts | 160° |
| 2026-04-18 07:45 | -15.23712 | 52.82231 | 36994 ft | 503 kts | 160° |
| 2026-04-18 07:45 | -15.30070 | 52.85158 | 36994 ft | 503 kts | 160° |
| 2026-04-18 07:46 | -15.36458 | 52.88101 | 36997 ft | 502 kts | 160° |
| 2026-04-18 07:46 | -15.42851 | 52.91048 | 36997 ft | 502 kts | 160° |
| 2026-04-18 07:47 | -15.49240 | 52.93994 | 37004 ft | 503 kts | 160° |
| 2026-04-18 07:47 | -15.55643 | 52.96950 | 36994 ft | 504 kts | 160° |
| 2026-04-18 07:48 | -15.62052 | 52.99910 | 36996 ft | 505 kts | 159° |
| 2026-04-18 07:48 | -15.68471 | 53.02878 | 36998 ft | 505 kts | 160° |
| 2026-04-18 07:49 | -15.74865 | 53.05835 | 37001 ft | 506 kts | 160° |
| 2026-04-18 07:49 | -15.81304 | 53.08816 | 36996 ft | 507 kts | 159° |
| 2026-04-18 07:50 | -15.87744 | 53.11799 | 36996 ft | 507 kts | 159° |
| 2026-04-18 07:50 | -15.94190 | 53.14787 | 36995 ft | 508 kts | 159° |
| 2026-04-18 07:51 | -16.00651 | 53.17784 | 36998 ft | 508 kts | 159° |
| 2026-04-18 07:51 | -16.07116 | 53.20785 | 36997 ft | 508 kts | 159° |
| 2026-04-18 07:52 | -16.13575 | 53.23786 | 37003 ft | 508 kts | 159° |
| 2026-04-18 07:52 | -16.20039 | 53.26791 | 36997 ft | 508 kts | 159° |
| 2026-04-18 07:53 | -16.26450 | 53.29774 | 37003 ft | 508 kts | 159° |
| 2026-04-18 07:53 | -16.32900 | 53.32777 | 37006 ft | 507 kts | 159° |
| 2026-04-18 07:54 | -16.39349 | 53.35782 | 37003 ft | 507 kts | 159° |
| 2026-04-18 07:54 | -16.45795 | 53.38783 | 37007 ft | 507 kts | 159° |
| 2026-04-18 07:55 | -16.52229 | 53.41778 | 37004 ft | 507 kts | 159° |
| 2026-04-18 07:55 | -16.58664 | 53.44777 | 37008 ft | 506 kts | 159° |
| 2026-04-18 07:56 | -16.65093 | 53.47776 | 37007 ft | 506 kts | 159° |
| 2026-04-18 07:56 | -16.71486 | 53.50761 | 37030 ft | 506 kts | 159° |
| 2026-04-18 07:57 | -16.77917 | 53.53765 | 37014 ft | 506 kts | 159° |
| 2026-04-18 07:57 | -16.84352 | 53.56775 | 37009 ft | 506 kts | 159° |
| 2026-04-18 07:58 | -16.93989 | 53.61285 | 37011 ft | 506 kts | 159° |
| 2026-04-18 07:59 | -17.00424 | 53.64300 | 37011 ft | 506 kts | 159° |
| 2026-04-18 07:59 | -17.06850 | 53.67312 | 37015 ft | 506 kts | 159° |
| 2026-04-18 08:00 | -17.13226 | 53.70303 | 37006 ft | 506 kts | 159° |
| 2026-04-18 08:00 | -17.19658 | 53.73323 | 37009 ft | 506 kts | 159° |
| 2026-04-18 08:01 | -17.26077 | 53.76340 | 37017 ft | 506 kts | 159° |
| 2026-04-18 08:01 | -17.32497 | 53.79359 | 37014 ft | 506 kts | 159° |
| 2026-04-18 08:02 | -17.38924 | 53.82383 | 37012 ft | 506 kts | 159° |
| 2026-04-18 08:02 | -17.45349 | 53.85409 | 37015 ft | 506 kts | 159° |
| 2026-04-18 08:03 | -17.51769 | 53.88435 | 37016 ft | 506 kts | 159° |
| 2026-04-18 08:03 | -17.58187 | 53.91463 | 37016 ft | 506 kts | 159° |
| 2026-04-18 08:04 | -17.64606 | 53.94493 | 37019 ft | 506 kts | 159° |
| 2026-04-18 08:04 | -17.70977 | 53.97503 | 37020 ft | 506 kts | 159° |
| 2026-04-18 08:05 | -17.77398 | 54.00539 | 37014 ft | 505 kts | 158° |
| 2026-04-18 08:05 | -17.83809 | 54.03573 | 37020 ft | 505 kts | 158° |
| 2026-04-18 08:06 | -17.90224 | 54.06611 | 37016 ft | 505 kts | 158° |
| 2026-04-18 08:06 | -17.96631 | 54.09648 | 37030 ft | 505 kts | 158° |
| 2026-04-18 08:07 | -18.03051 | 54.12694 | 37018 ft | 506 kts | 158° |
| 2026-04-18 08:07 | -18.09467 | 54.15740 | 37022 ft | 505 kts | 158° |
| 2026-04-18 08:08 | -18.15881 | 54.18778 | 37027 ft | 505 kts | 158° |
| 2026-04-18 08:08 | -18.22292 | 54.21809 | 37025 ft | 505 kts | 158° |
| 2026-04-18 08:09 | -18.28698 | 54.24843 | 37038 ft | 505 kts | 158° |
| 2026-04-18 08:09 | -18.35076 | 54.27868 | 37032 ft | 506 kts | 158° |
| 2026-04-18 08:10 | -18.41497 | 54.30916 | 37029 ft | 506 kts | 158° |
| 2026-04-18 08:10 | -18.47931 | 54.33972 | 37028 ft | 506 kts | 158° |
| 2026-04-18 08:11 | -18.54353 | 54.37026 | 37025 ft | 506 kts | 158° |
| 2026-04-18 08:11 | -18.60739 | 54.40062 | 37037 ft | 506 kts | 159° |
| 2026-04-18 08:12 | -18.67269 | 54.42818 | 37029 ft | 505 kts | 162° |
| 2026-04-18 08:12 | -18.73879 | 54.45373 | 37026 ft | 505 kts | 162° |
| 2026-04-18 08:13 | -18.80474 | 54.47942 | 37027 ft | 505 kts | 162° |
| 2026-04-18 08:13 | -18.87050 | 54.50555 | 37028 ft | 505 kts | 162° |
| 2026-04-18 08:14 | -18.93577 | 54.53172 | 37024 ft | 505 kts | 162° |
| 2026-04-18 08:14 | -19.00141 | 54.55808 | 37032 ft | 504 kts | 162° |
| 2026-04-18 08:14 | -19.03451 | 54.57135 | 36386 ft | 514 kts | 162° |
| 2026-04-18 08:15 | -19.06799 | 54.58477 | 35684 ft | 514 kts | 162° |
| 2026-04-18 08:15 | -19.10148 | 54.59821 | 34847 ft | 515 kts | 162° |
| 2026-04-18 08:15 | -19.13503 | 54.61169 | 33979 ft | 517 kts | 162° |
| 2026-04-18 08:15 | -19.16881 | 54.62526 | 32973 ft | 518 kts | 161° |
| 2026-04-18 08:16 | -19.19114 | 54.63423 | 32359 ft | 519 kts | 161° |
| 2026-04-18 08:16 | -19.22478 | 54.64776 | 31678 ft | 514 kts | 161° |
| 2026-04-18 08:16 | -19.25804 | 54.66115 | 31076 ft | 508 kts | 161° |
| 2026-04-18 08:16 | -19.30156 | 54.67868 | 30276 ft | 501 kts | 161° |
| 2026-04-18 08:17 | -19.32354 | 54.68753 | 29834 ft | 498 kts | 161° |
| 2026-04-18 08:17 | -19.35577 | 54.70051 | 29177 ft | 492 kts | 161° |
| 2026-04-18 08:17 | -19.38714 | 54.71315 | 28574 ft | 486 kts | 161° |
| 2026-04-18 08:17 | -19.41858 | 54.72582 | 27990 ft | 481 kts | 161° |
| 2026-04-18 08:18 | -19.44971 | 54.73838 | 27403 ft | 475 kts | 160° |
| 2026-04-18 08:18 | -19.48045 | 54.75077 | 26851 ft | 470 kts | 160° |
| 2026-04-18 08:18 | -19.51096 | 54.76308 | 26291 ft | 465 kts | 160° |
| 2026-04-18 08:18 | -19.54103 | 54.77522 | 25729 ft | 461 kts | 160° |
| 2026-04-18 08:19 | -19.57092 | 54.78728 | 25183 ft | 457 kts | 160° |
| 2026-04-18 08:19 | -19.60044 | 54.79921 | 24620 ft | 453 kts | 160° |
| 2026-04-18 08:19 | -19.62986 | 54.81110 | 24067 ft | 450 kts | 160° |
| 2026-04-18 08:19 | -19.65905 | 54.82290 | 23502 ft | 448 kts | 160° |
| 2026-04-18 08:20 | -19.68779 | 54.83452 | 22893 ft | 448 kts | 160° |
| 2026-04-18 08:20 | -19.71720 | 54.84641 | 22316 ft | 444 kts | 160° |
| 2026-04-18 08:20 | -19.74552 | 54.85788 | 21775 ft | 439 kts | 160° |
| 2026-04-18 08:20 | -19.77394 | 54.86939 | 21241 ft | 435 kts | 160° |
| 2026-04-18 08:21 | -19.80210 | 54.88080 | 20716 ft | 431 kts | 160° |
| 2026-04-18 08:21 | -19.83008 | 54.89213 | 20196 ft | 427 kts | 160° |
| 2026-04-18 08:21 | -19.85769 | 54.90332 | 19677 ft | 423 kts | 160° |
| 2026-04-18 08:21 | -19.88513 | 54.91445 | 19148 ft | 421 kts | 160° |
| 2026-04-18 08:22 | -19.91242 | 54.92552 | 18618 ft | 419 kts | 159° |
| 2026-04-18 08:22 | -19.93959 | 54.93655 | 18058 ft | 417 kts | 160° |
| 2026-04-18 08:22 | -19.96658 | 54.94750 | 17500 ft | 414 kts | 159° |
| 2026-04-18 08:22 | -19.99334 | 54.95838 | 16969 ft | 410 kts | 159° |
| 2026-04-18 08:23 | -20.01989 | 54.96916 | 16457 ft | 406 kts | 159° |
| 2026-04-18 08:23 | -20.04617 | 54.97985 | 15947 ft | 403 kts | 160° |
| 2026-04-18 08:23 | -20.07227 | 54.99046 | 15443 ft | 400 kts | 159° |
| 2026-04-18 08:23 | -20.09823 | 55.00102 | 14932 ft | 398 kts | 160° |
| 2026-04-18 08:24 | -20.12403 | 55.01152 | 14436 ft | 396 kts | 160° |
| 2026-04-18 08:24 | -20.14961 | 55.02193 | 13917 ft | 394 kts | 160° |
| 2026-04-18 08:24 | -20.17515 | 55.03233 | 13366 ft | 392 kts | 160° |
| 2026-04-18 08:24 | -20.20057 | 55.04268 | 12846 ft | 389 kts | 160° |
| 2026-04-18 08:25 | -20.22575 | 55.05294 | 12328 ft | 386 kts | 159° |
| 2026-04-18 08:25 | -20.25073 | 55.06312 | 11846 ft | 383 kts | 160° |
| 2026-04-18 08:25 | -20.27534 | 55.07316 | 11240 ft | 384 kts | 159° |
| 2026-04-18 08:25 | -20.30018 | 55.08329 | 10794 ft | 379 kts | 159° |
| 2026-04-18 08:26 | -20.32443 | 55.09318 | 10606 ft | 367 kts | 159° |
| 2026-04-18 08:26 | -20.34785 | 55.10274 | 10446 ft | 355 kts | 159° |
| 2026-04-18 08:26 | -20.37057 | 55.11202 | 10281 ft | 344 kts | 159° |
| 2026-04-18 08:26 | -20.39257 | 55.12101 | 10141 ft | 333 kts | 159° |
| 2026-04-18 08:27 | -20.41388 | 55.12971 | 9993 ft | 323 kts | 159° |
| 2026-04-18 08:27 | -20.43455 | 55.13816 | 9867 ft | 313 kts | 159° |
| 2026-04-18 08:27 | -20.45442 | 55.14628 | 9610 ft | 294 kts | 159° |
| 2026-04-18 08:27 | -20.47284 | 55.15381 | 9261 ft | 275 kts | 159° |
| 2026-04-18 08:28 | -20.49012 | 55.16088 | 8933 ft | 258 kts | 159° |
| 2026-04-18 08:28 | -20.50703 | 55.16779 | 8678 ft | 267 kts | 159° |
| 2026-04-18 08:28 | -20.52504 | 55.17517 | 8396 ft | 285 kts | 159° |
| 2026-04-18 08:28 | -20.54371 | 55.18281 | 8059 ft | 289 kts | 158° |
| 2026-04-18 08:29 | -20.56252 | 55.19051 | 7724 ft | 289 kts | 158° |
| 2026-04-18 08:29 | -20.58125 | 55.19818 | 7392 ft | 288 kts | 158° |
| 2026-04-18 08:29 | -20.59967 | 55.20572 | 7080 ft | 286 kts | 158° |
| 2026-04-18 08:29 | -20.61815 | 55.21330 | 6762 ft | 285 kts | 158° |
| 2026-04-18 08:30 | -20.63638 | 55.22076 | 6424 ft | 273 kts | 158° |
| 2026-04-18 08:30 | -20.65359 | 55.22781 | 6079 ft | 258 kts | 157° |
| 2026-04-18 08:30 | -20.67027 | 55.23465 | 5795 ft | 261 kts | 157° |
| 2026-04-18 08:30 | -20.68753 | 55.24175 | 5484 ft | 266 kts | 158° |
| 2026-04-18 08:31 | -20.70452 | 55.24872 | 5178 ft | 258 kts | 157° |
| 2026-04-18 08:31 | -20.72148 | 55.25568 | 4892 ft | 265 kts | 157° |
| 2026-04-18 08:31 | -20.73878 | 55.26279 | 4595 ft | 266 kts | 157° |
| 2026-04-18 08:31 | -20.75557 | 55.26967 | 4463 ft | 258 kts | 158° |
| 2026-04-18 08:32 | -20.77158 | 55.27711 | 4323 ft | 245 kts | 144° |
| 2026-04-18 08:32 | -20.78297 | 55.29001 | 4077 ft | 237 kts | 121° |
| 2026-04-18 08:32 | -20.79122 | 55.30506 | 3845 ft | 234 kts | 118° |
| 2026-04-18 08:32 | -20.79863 | 55.32042 | 3629 ft | 231 kts | 116° |
| 2026-04-18 08:33 | -20.80576 | 55.33575 | 3353 ft | 230 kts | 115° |
| 2026-04-18 08:33 | -20.81269 | 55.35065 | 3046 ft | 217 kts | 115° |
| 2026-04-18 08:33 | -20.81915 | 55.36451 | 2788 ft | 200 kts | 115° |
| 2026-04-18 08:33 | -20.82510 | 55.37728 | 2599 ft | 191 kts | 115° |
| 2026-04-18 08:34 | -20.83094 | 55.38983 | 2330 ft | 185 kts | 115° |
| 2026-04-18 08:34 | -20.83660 | 55.40199 | 2071 ft | 180 kts | 115° |
| 2026-04-18 08:34 | -20.84204 | 55.41365 | 1829 ft | 169 kts | 115° |
| 2026-04-18 08:34 | -20.84731 | 55.42498 | 1647 ft | 171 kts | 116° |
| 2026-04-18 08:35 | -20.85252 | 55.43615 | 1392 ft | 163 kts | 114° |
| 2026-04-18 08:35 | -20.85746 | 55.44673 | 1231 ft | 157 kts | 114° |
| 2026-04-18 08:35 | -20.86239 | 55.45732 | 1010 ft | 159 kts | 114° |
| 2026-04-18 08:35 | -20.86710 | 55.46744 | 808 ft | 148 kts | 114° |
| 2026-04-18 08:36 | -20.87148 | 55.47684 | 646 ft | 139 kts | 115° |
| 2026-04-18 08:36 | -20.87592 | 55.48638 | 458 ft | 148 kts | 115° |
| 2026-04-18 08:36 | -20.88050 | 55.49626 | 266 ft | 147 kts | 114° |
| 2026-04-18 08:36 | -20.88495 | 55.50572 | 89 ft | 138 kts | 114° |
| 2026-04-18 08:37 | -20.88893 | 55.51427 | 48 ft | 113 kts | 115° |
| 2026-04-18 08:37 | -20.89175 | 55.52031 | 48 ft | 49 kts | 116° |
| 2026-04-18 08:37 | -20.89287 | 55.52204 | 47 ft | 14 kts | 165° |
| 2026-04-18 08:37 | -20.89328 | 55.52203 | 48 ft | 7 kts | 186° |
| 2026-04-18 08:38 | -20.89373 | 55.52187 | 49 ft | 7 kts | 208° |
| 2026-04-18 08:38 | -20.89403 | 55.52148 | 50 ft | 7 kts | 249° |
| 2026-04-18 08:38 | -20.89393 | 55.52097 | 48 ft | 7 kts | 297° |
| 2026-04-18 08:38 | -20.89362 | 55.52037 | 50 ft | 13 kts | 298° |
| 2026-04-18 08:39 | -20.89306 | 55.51917 | 48 ft | 22 kts | 296° |
| 2026-04-18 08:39 | -20.89234 | 55.51762 | 50 ft | 17 kts | 297° |
| 2026-04-18 08:39 | -20.89193 | 55.51676 | 49 ft | 13 kts | 296° |
| 2026-04-18 08:39 | -20.89151 | 55.51582 | 50 ft | 15 kts | 298° |
| 2026-04-18 08:40 | -20.89115 | 55.51506 | 51 ft | 9 kts | 295° |
| 2026-04-18 08:40 | -20.89088 | 55.51448 | 49 ft | 9 kts | 296° |
| 2026-04-18 08:40 | -20.89060 | 55.51385 | 49 ft | 10 kts | 297° |
| 2026-04-18 08:40 | -20.89011 | 55.51285 | 49 ft | 18 kts | 296° |
| 2026-04-18 08:41 | -20.88966 | 55.51186 | 50 ft | 0 kts | 295° |